<?xml version="1.0" encoding="UTF-8" standalone="no" ?>
<gpx xmlns="http://www.topografix.com/GPX/1/1" xmlns:xsi="http://www.w3.org/2001/XMLSchema-instance" xsi:schemaLocation="http://www.topografix.com/GPX/1/1 http://www.topografix.com/GPX/1/1/gpx.xsd" version="1.1" creator="VisuGPX - https://www.visugpx.com">
  <metadata>
    <name>VacancesDricouZoe</name>
  </metadata>
  <trk>
    <name><![CDATA[Journal actif: 2021-07-07 16:04]]></name>
    <trkseg>
      <trkpt lat="44.21552" lon="-0.92562">
        <ele>65.51</ele>
        <time>2021-07-07T18:04:29Z</time>
      </trkpt>
      <trkpt lat="44.2183" lon="-0.92467">
        <ele>70.79</ele>
        <time>2021-07-07T18:04:40Z</time>
      </trkpt>
      <trkpt lat="44.22085" lon="-0.92299">
        <ele>72.72</ele>
        <time>2021-07-07T18:04:49Z</time>
      </trkpt>
      <trkpt lat="44.22269" lon="-0.92113">
        <ele>68.39</ele>
        <time>2021-07-07T18:04:58Z</time>
      </trkpt>
      <trkpt lat="44.22477" lon="-0.91809">
        <ele>65.03</ele>
        <time>2021-07-07T18:05:08Z</time>
      </trkpt>
      <trkpt lat="44.22748" lon="-0.9143">
        <ele>66.95</ele>
        <time>2021-07-07T18:05:21Z</time>
      </trkpt>
      <trkpt lat="44.22975" lon="-0.91228">
        <ele>64.55</ele>
        <time>2021-07-07T18:05:30Z</time>
      </trkpt>
      <trkpt lat="44.23221" lon="-0.91092">
        <ele>67.43</ele>
        <time>2021-07-07T18:05:38Z</time>
      </trkpt>
      <trkpt lat="44.2364" lon="-0.90929">
        <ele>66.95</ele>
        <time>2021-07-07T18:05:54Z</time>
      </trkpt>
      <trkpt lat="44.24291" lon="-0.9068">
        <ele>68.87</ele>
        <time>2021-07-07T18:06:17Z</time>
      </trkpt>
      <trkpt lat="44.24841" lon="-0.90471">
        <ele>69.35</ele>
        <time>2021-07-07T18:06:36Z</time>
      </trkpt>
      <trkpt lat="44.25262" lon="-0.90312">
        <ele>69.83</ele>
        <time>2021-07-07T18:06:53Z</time>
      </trkpt>
      <trkpt lat="44.25751" lon="-0.90127">
        <ele>69.35</ele>
        <time>2021-07-07T18:07:12Z</time>
      </trkpt>
      <trkpt lat="44.26249" lon="-0.89941">
        <ele>69.83</ele>
        <time>2021-07-07T18:07:31Z</time>
      </trkpt>
      <trkpt lat="44.26692" lon="-0.89776">
        <ele>68.39</ele>
        <time>2021-07-07T18:07:48Z</time>
      </trkpt>
      <trkpt lat="44.2737" lon="-0.89523">
        <ele>67.43</ele>
        <time>2021-07-07T18:08:13Z</time>
      </trkpt>
      <trkpt lat="44.27952" lon="-0.89306">
        <ele>65.99</ele>
        <time>2021-07-07T18:08:35Z</time>
      </trkpt>
      <trkpt lat="44.28498" lon="-0.89103">
        <ele>66.47</ele>
        <time>2021-07-07T18:08:55Z</time>
      </trkpt>
      <trkpt lat="44.29172" lon="-0.88851">
        <ele>65.51</ele>
        <time>2021-07-07T18:09:20Z</time>
      </trkpt>
      <trkpt lat="44.29766" lon="-0.88629">
        <ele>64.55</ele>
        <time>2021-07-07T18:09:42Z</time>
      </trkpt>
      <trkpt lat="44.30296" lon="-0.88432">
        <ele>63.58</ele>
        <time>2021-07-07T18:10:01Z</time>
      </trkpt>
      <trkpt lat="44.30745" lon="-0.88265">
        <ele>63.1</ele>
        <time>2021-07-07T18:10:17Z</time>
      </trkpt>
      <trkpt lat="44.31057" lon="-0.88179">
        <ele>64.07</ele>
        <time>2021-07-07T18:10:27Z</time>
      </trkpt>
      <trkpt lat="44.3132" lon="-0.88173">
        <ele>63.1</ele>
        <time>2021-07-07T18:10:37Z</time>
      </trkpt>
      <trkpt lat="44.31677" lon="-0.8821">
        <ele>62.62</ele>
        <time>2021-07-07T18:10:49Z</time>
      </trkpt>
      <trkpt lat="44.3191" lon="-0.88167">
        <ele>60.7</ele>
        <time>2021-07-07T18:10:57Z</time>
      </trkpt>
      <trkpt lat="44.32134" lon="-0.88053">
        <ele>61.18</ele>
        <time>2021-07-07T18:11:05Z</time>
      </trkpt>
      <trkpt lat="44.32332" lon="-0.87871">
        <ele>62.14</ele>
        <time>2021-07-07T18:11:13Z</time>
      </trkpt>
      <trkpt lat="44.32526" lon="-0.87605">
        <ele>60.7</ele>
        <time>2021-07-07T18:11:22Z</time>
      </trkpt>
      <trkpt lat="44.32754" lon="-0.87328">
        <ele>60.22</ele>
        <time>2021-07-07T18:11:32Z</time>
      </trkpt>
      <trkpt lat="44.33016" lon="-0.87109">
        <ele>59.74</ele>
        <time>2021-07-07T18:11:41Z</time>
      </trkpt>
      <trkpt lat="44.33451" lon="-0.86828">
        <ele>58.3</ele>
        <time>2021-07-07T18:11:58Z</time>
      </trkpt>
      <trkpt lat="44.34073" lon="-0.86428">
        <ele>59.74</ele>
        <time>2021-07-07T18:12:22Z</time>
      </trkpt>
      <trkpt lat="44.3439" lon="-0.86222">
        <ele>60.22</ele>
        <time>2021-07-07T18:12:36Z</time>
      </trkpt>
      <trkpt lat="44.34571" lon="-0.86099">
        <ele>61.66</ele>
        <time>2021-07-07T18:12:45Z</time>
      </trkpt>
      <trkpt lat="44.34664" lon="-0.86041">
        <ele>62.14</ele>
        <time>2021-07-07T18:12:53Z</time>
      </trkpt>
      <trkpt lat="44.34699" lon="-0.86019">
        <ele>64.07</ele>
        <time>2021-07-07T18:12:59Z</time>
      </trkpt>
      <trkpt lat="44.34702" lon="-0.86017">
        <ele>64.55</ele>
        <time>2021-07-07T18:13:00Z</time>
      </trkpt>
      <trkpt lat="44.34705" lon="-0.86015">
        <ele>65.03</ele>
        <time>2021-07-07T18:13:01Z</time>
      </trkpt>
      <trkpt lat="44.34766" lon="-0.85972">
        <ele>63.58</ele>
        <time>2021-07-07T18:13:07Z</time>
      </trkpt>
      <trkpt lat="44.34869" lon="-0.85907">
        <ele>61.18</ele>
        <time>2021-07-07T18:13:15Z</time>
      </trkpt>
      <trkpt lat="44.35043" lon="-0.85797">
        <ele>59.74</ele>
        <time>2021-07-07T18:13:24Z</time>
      </trkpt>
      <trkpt lat="44.35339" lon="-0.85606">
        <ele>58.3</ele>
        <time>2021-07-07T18:13:37Z</time>
      </trkpt>
      <trkpt lat="44.35722" lon="-0.8536">
        <ele>56.86</ele>
        <time>2021-07-07T18:13:52Z</time>
      </trkpt>
      <trkpt lat="44.3624" lon="-0.85023">
        <ele>53.97</ele>
        <time>2021-07-07T18:14:11Z</time>
      </trkpt>
      <trkpt lat="44.36832" lon="-0.84638">
        <ele>52.05</ele>
        <time>2021-07-07T18:14:33Z</time>
      </trkpt>
      <trkpt lat="44.37437" lon="-0.8425">
        <ele>49.16</ele>
        <time>2021-07-07T18:15:14Z</time>
      </trkpt>
      <trkpt lat="44.37986" lon="-0.83892">
        <ele>47.24</ele>
        <time>2021-07-07T18:15:35Z</time>
      </trkpt>
      <trkpt lat="44.38453" lon="-0.83592">
        <ele>44.84</ele>
        <time>2021-07-07T18:15:53Z</time>
      </trkpt>
      <trkpt lat="44.38776" lon="-0.83417">
        <ele>43.4</ele>
        <time>2021-07-07T18:16:05Z</time>
      </trkpt>
      <trkpt lat="44.39039" lon="-0.83256">
        <ele>44.84</ele>
        <time>2021-07-07T18:16:15Z</time>
      </trkpt>
      <trkpt lat="44.39247" lon="-0.83038">
        <ele>42.92</ele>
        <time>2021-07-07T18:16:24Z</time>
      </trkpt>
      <trkpt lat="44.3963" lon="-0.82512">
        <ele>41.47</ele>
        <time>2021-07-07T18:16:42Z</time>
      </trkpt>
      <trkpt lat="44.39963" lon="-0.82088">
        <ele>39.55</ele>
        <time>2021-07-07T18:16:57Z</time>
      </trkpt>
      <trkpt lat="44.40176" lon="-0.81929">
        <ele>39.55</ele>
        <time>2021-07-07T18:17:05Z</time>
      </trkpt>
      <trkpt lat="44.4038" lon="-0.81845">
        <ele>40.03</ele>
        <time>2021-07-07T18:17:12Z</time>
      </trkpt>
      <trkpt lat="44.40624" lon="-0.81822">
        <ele>40.03</ele>
        <time>2021-07-07T18:17:20Z</time>
      </trkpt>
      <trkpt lat="44.40954" lon="-0.81879">
        <ele>39.55</ele>
        <time>2021-07-07T18:17:31Z</time>
      </trkpt>
      <trkpt lat="44.41323" lon="-0.81956">
        <ele>39.55</ele>
        <time>2021-07-07T18:17:44Z</time>
      </trkpt>
      <trkpt lat="44.41802" lon="-0.82041">
        <ele>39.55</ele>
        <time>2021-07-07T18:18:01Z</time>
      </trkpt>
      <trkpt lat="44.42028" lon="-0.82016">
        <ele>39.55</ele>
        <time>2021-07-07T18:18:09Z</time>
      </trkpt>
      <trkpt lat="44.42333" lon="-0.81899">
        <ele>38.11</ele>
        <time>2021-07-07T18:18:20Z</time>
      </trkpt>
      <trkpt lat="44.42853" lon="-0.81683">
        <ele>36.67</ele>
        <time>2021-07-07T18:18:39Z</time>
      </trkpt>
      <trkpt lat="44.43111" lon="-0.81574">
        <ele>37.15</ele>
        <time>2021-07-07T18:18:49Z</time>
      </trkpt>
      <trkpt lat="44.43496" lon="-0.81413">
        <ele>34.26</ele>
        <time>2021-07-07T18:19:03Z</time>
      </trkpt>
      <trkpt lat="44.44082" lon="-0.81171">
        <ele>36.19</ele>
        <time>2021-07-07T18:19:25Z</time>
      </trkpt>
      <trkpt lat="44.44366" lon="-0.81076">
        <ele>36.19</ele>
        <time>2021-07-07T18:19:37Z</time>
      </trkpt>
      <trkpt lat="44.44685" lon="-0.80935">
        <ele>34.26</ele>
        <time>2021-07-07T18:19:52Z</time>
      </trkpt>
      <trkpt lat="44.45056" lon="-0.8078">
        <ele>32.82</ele>
        <time>2021-07-07T18:20:09Z</time>
      </trkpt>
      <trkpt lat="44.45619" lon="-0.80542">
        <ele>31.38</ele>
        <time>2021-07-07T18:20:34Z</time>
      </trkpt>
      <trkpt lat="44.46071" lon="-0.80352">
        <ele>30.9</ele>
        <time>2021-07-07T18:20:55Z</time>
      </trkpt>
      <trkpt lat="44.46426" lon="-0.80199">
        <ele>22.73</ele>
        <time>2021-07-07T18:21:11Z</time>
      </trkpt>
      <trkpt lat="44.46848" lon="-0.80022">
        <ele>20.81</ele>
        <time>2021-07-07T18:21:29Z</time>
      </trkpt>
      <trkpt lat="44.47161" lon="-0.79883">
        <ele>19.36</ele>
        <time>2021-07-07T18:21:43Z</time>
      </trkpt>
      <trkpt lat="44.4735" lon="-0.79751">
        <ele>16.48</ele>
        <time>2021-07-07T18:21:53Z</time>
      </trkpt>
      <trkpt lat="44.47404" lon="-0.79695">
        <ele>17.44</ele>
        <time>2021-07-07T18:21:57Z</time>
      </trkpt>
      <trkpt lat="44.47415" lon="-0.79679">
        <ele>17.44</ele>
        <time>2021-07-07T18:21:58Z</time>
      </trkpt>
      <trkpt lat="44.47425" lon="-0.79662">
        <ele>17.44</ele>
        <time>2021-07-07T18:21:59Z</time>
      </trkpt>
      <trkpt lat="44.47433" lon="-0.79642">
        <ele>17.44</ele>
        <time>2021-07-07T18:22:00Z</time>
      </trkpt>
      <trkpt lat="44.4744" lon="-0.79623">
        <ele>17.92</ele>
        <time>2021-07-07T18:22:01Z</time>
      </trkpt>
      <trkpt lat="44.47444" lon="-0.79601">
        <ele>17.92</ele>
        <time>2021-07-07T18:22:02Z</time>
      </trkpt>
      <trkpt lat="44.47448" lon="-0.7958">
        <ele>18.88</ele>
        <time>2021-07-07T18:22:03Z</time>
      </trkpt>
      <trkpt lat="44.4745" lon="-0.79559">
        <ele>19.84</ele>
        <time>2021-07-07T18:22:04Z</time>
      </trkpt>
      <trkpt lat="44.47451" lon="-0.79537">
        <ele>19.36</ele>
        <time>2021-07-07T18:22:05Z</time>
      </trkpt>
      <trkpt lat="44.47458" lon="-0.79414">
        <ele>18.4</ele>
        <time>2021-07-07T18:22:11Z</time>
      </trkpt>
      <trkpt lat="44.47463" lon="-0.79398">
        <ele>17.92</ele>
        <time>2021-07-07T18:22:12Z</time>
      </trkpt>
      <trkpt lat="44.47469" lon="-0.7938">
        <ele>17.92</ele>
        <time>2021-07-07T18:22:13Z</time>
      </trkpt>
      <trkpt lat="44.47475" lon="-0.79361">
        <ele>17.44</ele>
        <time>2021-07-07T18:22:14Z</time>
      </trkpt>
      <trkpt lat="44.47483" lon="-0.79345">
        <ele>16.48</ele>
        <time>2021-07-07T18:22:15Z</time>
      </trkpt>
      <trkpt lat="44.47493" lon="-0.79328">
        <ele>16</ele>
        <time>2021-07-07T18:22:16Z</time>
      </trkpt>
      <trkpt lat="44.47617" lon="-0.79192">
        <ele>16.48</ele>
        <time>2021-07-07T18:22:25Z</time>
      </trkpt>
      <trkpt lat="44.47652" lon="-0.79175">
        <ele>16.96</ele>
        <time>2021-07-07T18:22:27Z</time>
      </trkpt>
      <trkpt lat="44.47671" lon="-0.79166">
        <ele>16.96</ele>
        <time>2021-07-07T18:22:28Z</time>
      </trkpt>
      <trkpt lat="44.47691" lon="-0.79164">
        <ele>17.44</ele>
        <time>2021-07-07T18:22:29Z</time>
      </trkpt>
      <trkpt lat="44.47915" lon="-0.7918">
        <ele>19.36</ele>
        <time>2021-07-07T18:22:40Z</time>
      </trkpt>
      <trkpt lat="44.48019" lon="-0.79208">
        <ele>21.77</ele>
        <time>2021-07-07T18:22:45Z</time>
      </trkpt>
      <trkpt lat="44.48183" lon="-0.793">
        <ele>24.17</ele>
        <time>2021-07-07T18:22:54Z</time>
      </trkpt>
      <trkpt lat="44.48311" lon="-0.79317">
        <ele>29.46</ele>
        <time>2021-07-07T18:23:01Z</time>
      </trkpt>
      <trkpt lat="44.48508" lon="-0.79291">
        <ele>32.34</ele>
        <time>2021-07-07T18:23:12Z</time>
      </trkpt>
      <trkpt lat="44.48674" lon="-0.79247">
        <ele>31.86</ele>
        <time>2021-07-07T18:23:22Z</time>
      </trkpt>
      <trkpt lat="44.49041" lon="-0.79106">
        <ele>31.86</ele>
        <time>2021-07-07T18:23:45Z</time>
      </trkpt>
      <trkpt lat="44.49111" lon="-0.79086">
        <ele>30.9</ele>
        <time>2021-07-07T18:23:50Z</time>
      </trkpt>
      <trkpt lat="44.49123" lon="-0.79085">
        <ele>30.42</ele>
        <time>2021-07-07T18:23:51Z</time>
      </trkpt>
      <trkpt lat="44.49136" lon="-0.79089">
        <ele>29.46</ele>
        <time>2021-07-07T18:23:52Z</time>
      </trkpt>
      <trkpt lat="44.49148" lon="-0.79096">
        <ele>28.5</ele>
        <time>2021-07-07T18:23:53Z</time>
      </trkpt>
      <trkpt lat="44.49159" lon="-0.79104">
        <ele>28.02</ele>
        <time>2021-07-07T18:23:54Z</time>
      </trkpt>
      <trkpt lat="44.4917" lon="-0.79112">
        <ele>29.46</ele>
        <time>2021-07-07T18:23:55Z</time>
      </trkpt>
      <trkpt lat="44.49226" lon="-0.79152">
        <ele>28.02</ele>
        <time>2021-07-07T18:23:40Z</time>
      </trkpt>
      <trkpt lat="44.49237" lon="-0.79156">
        <ele>28.5</ele>
        <time>2021-07-07T18:23:41Z</time>
      </trkpt>
      <trkpt lat="44.49279" lon="-0.7917">
        <ele>29.94</ele>
        <time>2021-07-07T18:23:48Z</time>
      </trkpt>
      <trkpt lat="44.49292" lon="-0.79172">
        <ele>30.42</ele>
        <time>2021-07-07T18:23:50Z</time>
      </trkpt>
      <trkpt lat="44.49298" lon="-0.79172">
        <ele>30.42</ele>
        <time>2021-07-07T18:23:51Z</time>
      </trkpt>
      <trkpt lat="44.49305" lon="-0.79171">
        <ele>30.42</ele>
        <time>2021-07-07T18:23:52Z</time>
      </trkpt>
      <trkpt lat="44.49376" lon="-0.79148">
        <ele>29.46</ele>
        <time>2021-07-07T18:24:00Z</time>
      </trkpt>
      <trkpt lat="44.49384" lon="-0.79144">
        <ele>29.94</ele>
        <time>2021-07-07T18:24:01Z</time>
      </trkpt>
      <trkpt lat="44.49384" lon="-0.79144">
        <ele>29.94</ele>
        <time>2021-07-07T18:24:02Z</time>
      </trkpt>
      <trkpt lat="44.49391" lon="-0.79137">
        <ele>29.94</ele>
        <time>2021-07-07T18:24:03Z</time>
      </trkpt>
      <trkpt lat="44.49399" lon="-0.7913">
        <ele>29.94</ele>
        <time>2021-07-07T18:24:04Z</time>
      </trkpt>
      <trkpt lat="44.49406" lon="-0.79123">
        <ele>29.94</ele>
        <time>2021-07-07T18:24:05Z</time>
      </trkpt>
      <trkpt lat="44.49414" lon="-0.79116">
        <ele>29.46</ele>
        <time>2021-07-07T18:24:06Z</time>
      </trkpt>
      <trkpt lat="44.49422" lon="-0.79106">
        <ele>29.46</ele>
        <time>2021-07-07T18:24:07Z</time>
      </trkpt>
      <trkpt lat="44.4943" lon="-0.79096">
        <ele>30.42</ele>
        <time>2021-07-07T18:24:08Z</time>
      </trkpt>
      <trkpt lat="44.49523" lon="-0.78996">
        <ele>32.34</ele>
        <time>2021-07-07T18:24:17Z</time>
      </trkpt>
      <trkpt lat="44.49536" lon="-0.78988">
        <ele>33.3</ele>
        <time>2021-07-07T18:24:18Z</time>
      </trkpt>
      <trkpt lat="44.4955" lon="-0.7898">
        <ele>33.3</ele>
        <time>2021-07-07T18:24:19Z</time>
      </trkpt>
      <trkpt lat="44.49565" lon="-0.78975">
        <ele>33.78</ele>
        <time>2021-07-07T18:24:20Z</time>
      </trkpt>
      <trkpt lat="44.49595" lon="-0.7897">
        <ele>35.23</ele>
        <time>2021-07-07T18:24:21Z</time>
      </trkpt>
      <trkpt lat="44.49595" lon="-0.7897">
        <ele>35.23</ele>
        <time>2021-07-07T18:24:22Z</time>
      </trkpt>
      <trkpt lat="44.4961" lon="-0.78972">
        <ele>34.74</ele>
        <time>2021-07-07T18:24:23Z</time>
      </trkpt>
      <trkpt lat="44.49626" lon="-0.78975">
        <ele>35.71</ele>
        <time>2021-07-07T18:24:24Z</time>
      </trkpt>
      <trkpt lat="44.49642" lon="-0.78983">
        <ele>37.63</ele>
        <time>2021-07-07T18:24:25Z</time>
      </trkpt>
      <trkpt lat="44.49657" lon="-0.7899">
        <ele>39.55</ele>
        <time>2021-07-07T18:24:26Z</time>
      </trkpt>
      <trkpt lat="44.49671" lon="-0.78998">
        <ele>40.99</ele>
        <time>2021-07-07T18:24:27Z</time>
      </trkpt>
      <trkpt lat="44.49758" lon="-0.79043">
        <ele>45.32</ele>
        <time>2021-07-07T18:24:33Z</time>
      </trkpt>
      <trkpt lat="44.49774" lon="-0.79048">
        <ele>44.84</ele>
        <time>2021-07-07T18:24:34Z</time>
      </trkpt>
      <trkpt lat="44.49788" lon="-0.79049">
        <ele>43.88</ele>
        <time>2021-07-07T18:24:35Z</time>
      </trkpt>
      <trkpt lat="44.49802" lon="-0.79047">
        <ele>42.44</ele>
        <time>2021-07-07T18:24:36Z</time>
      </trkpt>
      <trkpt lat="44.49817" lon="-0.79044">
        <ele>41.47</ele>
        <time>2021-07-07T18:24:37Z</time>
      </trkpt>
      <trkpt lat="44.50033" lon="-0.79004">
        <ele>41.95</ele>
        <time>2021-07-07T18:24:51Z</time>
      </trkpt>
      <trkpt lat="44.50089" lon="-0.7899">
        <ele>43.4</ele>
        <time>2021-07-07T18:24:56Z</time>
      </trkpt>
      <trkpt lat="44.50106" lon="-0.78983">
        <ele>42.92</ele>
        <time>2021-07-07T18:24:57Z</time>
      </trkpt>
      <trkpt lat="44.50106" lon="-0.78983">
        <ele>43.4</ele>
        <time>2021-07-07T18:24:58Z</time>
      </trkpt>
      <trkpt lat="44.50113" lon="-0.78979">
        <ele>43.4</ele>
        <time>2021-07-07T18:24:59Z</time>
      </trkpt>
      <trkpt lat="44.50117" lon="-0.78971">
        <ele>43.88</ele>
        <time>2021-07-07T18:25:00Z</time>
      </trkpt>
      <trkpt lat="44.5012" lon="-0.78964">
        <ele>43.88</ele>
        <time>2021-07-07T18:25:01Z</time>
      </trkpt>
      <trkpt lat="44.50128" lon="-0.7896">
        <ele>43.88</ele>
        <time>2021-07-07T18:25:02Z</time>
      </trkpt>
      <trkpt lat="44.5013" lon="-0.7896">
        <ele>42.92</ele>
        <time>2021-07-07T18:25:03Z</time>
      </trkpt>
      <trkpt lat="44.50138" lon="-0.78973">
        <ele>42.92</ele>
        <time>2021-07-07T18:25:04Z</time>
      </trkpt>
      <trkpt lat="44.50143" lon="-0.78973">
        <ele>42.92</ele>
        <time>2021-07-07T18:25:05Z</time>
      </trkpt>
      <trkpt lat="44.50149" lon="-0.78974">
        <ele>42.92</ele>
        <time>2021-07-07T18:25:06Z</time>
      </trkpt>
      <trkpt lat="44.50156" lon="-0.78974">
        <ele>42.92</ele>
        <time>2021-07-07T18:25:07Z</time>
      </trkpt>
      <trkpt lat="44.50164" lon="-0.78974">
        <ele>43.4</ele>
        <time>2021-07-07T18:25:08Z</time>
      </trkpt>
      <trkpt lat="44.50173" lon="-0.78975">
        <ele>43.4</ele>
        <time>2021-07-07T18:25:09Z</time>
      </trkpt>
      <trkpt lat="44.50273" lon="-0.78956">
        <ele>42.92</ele>
        <time>2021-07-07T18:25:18Z</time>
      </trkpt>
      <trkpt lat="44.50434" lon="-0.78925">
        <ele>43.4</ele>
        <time>2021-07-07T18:25:30Z</time>
      </trkpt>
      <trkpt lat="44.50613" lon="-0.7889">
        <ele>43.88</ele>
        <time>2021-07-07T18:25:45Z</time>
      </trkpt>
      <trkpt lat="44.50703" lon="-0.78871">
        <ele>43.4</ele>
        <time>2021-07-07T18:25:56Z</time>
      </trkpt>
      <trkpt lat="44.50807" lon="-0.78843">
        <ele>40.03</ele>
        <time>2021-07-07T18:26:09Z</time>
      </trkpt>
      <trkpt lat="44.50886" lon="-0.78808">
        <ele>37.15</ele>
        <time>2021-07-07T18:26:18Z</time>
      </trkpt>
      <trkpt lat="44.50905" lon="-0.78792">
        <ele>35.71</ele>
        <time>2021-07-07T18:26:20Z</time>
      </trkpt>
      <trkpt lat="44.50915" lon="-0.78786">
        <ele>35.71</ele>
        <time>2021-07-07T18:26:21Z</time>
      </trkpt>
      <trkpt lat="44.50926" lon="-0.78782">
        <ele>35.71</ele>
        <time>2021-07-07T18:26:22Z</time>
      </trkpt>
      <trkpt lat="44.50936" lon="-0.7878">
        <ele>36.19</ele>
        <time>2021-07-07T18:26:23Z</time>
      </trkpt>
      <trkpt lat="44.50946" lon="-0.7878">
        <ele>36.67</ele>
        <time>2021-07-07T18:26:24Z</time>
      </trkpt>
      <trkpt lat="44.51021" lon="-0.78782">
        <ele>34.74</ele>
        <time>2021-07-07T18:26:30Z</time>
      </trkpt>
      <trkpt lat="44.51034" lon="-0.78785">
        <ele>33.3</ele>
        <time>2021-07-07T18:26:31Z</time>
      </trkpt>
      <trkpt lat="44.51045" lon="-0.7879">
        <ele>31.86</ele>
        <time>2021-07-07T18:26:32Z</time>
      </trkpt>
      <trkpt lat="44.51066" lon="-0.7881">
        <ele>29.94</ele>
        <time>2021-07-07T18:26:33Z</time>
      </trkpt>
      <trkpt lat="44.51066" lon="-0.7881">
        <ele>28.02</ele>
        <time>2021-07-07T18:26:34Z</time>
      </trkpt>
      <trkpt lat="44.51077" lon="-0.78824">
        <ele>26.09</ele>
        <time>2021-07-07T18:26:35Z</time>
      </trkpt>
      <trkpt lat="44.51084" lon="-0.78838">
        <ele>25.13</ele>
        <time>2021-07-07T18:26:36Z</time>
      </trkpt>
      <trkpt lat="44.5109" lon="-0.78854">
        <ele>23.69</ele>
        <time>2021-07-07T18:26:37Z</time>
      </trkpt>
      <trkpt lat="44.51094" lon="-0.78873">
        <ele>23.69</ele>
        <time>2021-07-07T18:26:38Z</time>
      </trkpt>
      <trkpt lat="44.51097" lon="-0.78892">
        <ele>23.21</ele>
        <time>2021-07-07T18:26:39Z</time>
      </trkpt>
      <trkpt lat="44.51098" lon="-0.78911">
        <ele>22.73</ele>
        <time>2021-07-07T18:26:40Z</time>
      </trkpt>
      <trkpt lat="44.51097" lon="-0.7893">
        <ele>21.77</ele>
        <time>2021-07-07T18:26:41Z</time>
      </trkpt>
      <trkpt lat="44.51092" lon="-0.79075">
        <ele>16.96</ele>
        <time>2021-07-07T18:26:48Z</time>
      </trkpt>
      <trkpt lat="44.51096" lon="-0.79094">
        <ele>17.44</ele>
        <time>2021-07-07T18:26:49Z</time>
      </trkpt>
      <trkpt lat="44.51101" lon="-0.79113">
        <ele>18.4</ele>
        <time>2021-07-07T18:26:50Z</time>
      </trkpt>
      <trkpt lat="44.51106" lon="-0.79131">
        <ele>17.92</ele>
        <time>2021-07-07T18:26:51Z</time>
      </trkpt>
      <trkpt lat="44.51115" lon="-0.79145">
        <ele>17.92</ele>
        <time>2021-07-07T18:26:52Z</time>
      </trkpt>
      <trkpt lat="44.51125" lon="-0.79161">
        <ele>18.4</ele>
        <time>2021-07-07T18:26:53Z</time>
      </trkpt>
      <trkpt lat="44.51134" lon="-0.79174">
        <ele>18.88</ele>
        <time>2021-07-07T18:26:54Z</time>
      </trkpt>
      <trkpt lat="44.51146" lon="-0.79185">
        <ele>18.88</ele>
        <time>2021-07-07T18:26:55Z</time>
      </trkpt>
      <trkpt lat="44.5116" lon="-0.79193">
        <ele>20.32</ele>
        <time>2021-07-07T18:26:56Z</time>
      </trkpt>
      <trkpt lat="44.51175" lon="-0.79202">
        <ele>21.77</ele>
        <time>2021-07-07T18:26:57Z</time>
      </trkpt>
      <trkpt lat="44.51345" lon="-0.79277">
        <ele>28.98</ele>
        <time>2021-07-07T18:27:08Z</time>
      </trkpt>
      <trkpt lat="44.51468" lon="-0.79323">
        <ele>35.23</ele>
        <time>2021-07-07T18:27:18Z</time>
      </trkpt>
      <trkpt lat="44.51624" lon="-0.79373">
        <ele>35.23</ele>
        <time>2021-07-07T18:27:33Z</time>
      </trkpt>
      <trkpt lat="44.51696" lon="-0.79389">
        <ele>35.71</ele>
        <time>2021-07-07T18:27:43Z</time>
      </trkpt>
      <trkpt lat="44.5171" lon="-0.7939">
        <ele>35.23</ele>
        <time>2021-07-07T18:27:46Z</time>
      </trkpt>
      <trkpt lat="44.5171" lon="-0.7939">
        <ele>35.71</ele>
        <time>2021-07-07T18:27:47Z</time>
      </trkpt>
      <trkpt lat="44.51718" lon="-0.79385">
        <ele>35.71</ele>
        <time>2021-07-07T18:27:49Z</time>
      </trkpt>
      <trkpt lat="44.51718" lon="-0.79385">
        <ele>36.19</ele>
        <time>2021-07-07T18:27:50Z</time>
      </trkpt>
      <trkpt lat="44.51723" lon="-0.79391">
        <ele>36.19</ele>
        <time>2021-07-07T18:27:51Z</time>
      </trkpt>
      <trkpt lat="44.5174" lon="-0.79401">
        <ele>36.19</ele>
        <time>2021-07-07T18:27:54Z</time>
      </trkpt>
      <trkpt lat="44.51746" lon="-0.79401">
        <ele>36.19</ele>
        <time>2021-07-07T18:27:55Z</time>
      </trkpt>
      <trkpt lat="44.5184" lon="-0.79408">
        <ele>36.67</ele>
        <time>2021-07-07T18:28:05Z</time>
      </trkpt>
      <trkpt lat="44.51987" lon="-0.79413">
        <ele>39.55</ele>
        <time>2021-07-07T18:28:18Z</time>
      </trkpt>
      <trkpt lat="44.52157" lon="-0.79402">
        <ele>40.51</ele>
        <time>2021-07-07T18:28:30Z</time>
      </trkpt>
      <trkpt lat="44.52391" lon="-0.79381">
        <ele>40.51</ele>
        <time>2021-07-07T18:28:44Z</time>
      </trkpt>
      <trkpt lat="44.52561" lon="-0.79366">
        <ele>39.55</ele>
        <time>2021-07-07T18:28:56Z</time>
      </trkpt>
      <trkpt lat="44.52764" lon="-0.7934">
        <ele>37.63</ele>
        <time>2021-07-07T18:29:09Z</time>
      </trkpt>
      <trkpt lat="44.5293" lon="-0.79301">
        <ele>36.19</ele>
        <time>2021-07-07T18:29:20Z</time>
      </trkpt>
      <trkpt lat="44.53139" lon="-0.79254">
        <ele>38.59</ele>
        <time>2021-07-07T18:29:33Z</time>
      </trkpt>
      <trkpt lat="44.53283" lon="-0.79243">
        <ele>40.03</ele>
        <time>2021-07-07T18:29:42Z</time>
      </trkpt>
      <trkpt lat="44.53433" lon="-0.79206">
        <ele>40.03</ele>
        <time>2021-07-07T18:29:52Z</time>
      </trkpt>
      <trkpt lat="44.53644" lon="-0.79111">
        <ele>38.59</ele>
        <time>2021-07-07T18:30:06Z</time>
      </trkpt>
      <trkpt lat="44.53846" lon="-0.79022">
        <ele>38.59</ele>
        <time>2021-07-07T18:30:19Z</time>
      </trkpt>
      <trkpt lat="44.54056" lon="-0.78963">
        <ele>41.47</ele>
        <time>2021-07-07T18:30:32Z</time>
      </trkpt>
      <trkpt lat="44.54236" lon="-0.78907">
        <ele>43.4</ele>
        <time>2021-07-07T18:30:43Z</time>
      </trkpt>
      <trkpt lat="44.54444" lon="-0.78844">
        <ele>47.72</ele>
        <time>2021-07-07T18:30:56Z</time>
      </trkpt>
      <trkpt lat="44.54754" lon="-0.78751">
        <ele>53.49</ele>
        <time>2021-07-07T18:31:15Z</time>
      </trkpt>
      <trkpt lat="44.55005" lon="-0.78676">
        <ele>53.49</ele>
        <time>2021-07-07T18:31:31Z</time>
      </trkpt>
      <trkpt lat="44.55248" lon="-0.78603">
        <ele>53.97</ele>
        <time>2021-07-07T18:31:46Z</time>
      </trkpt>
      <trkpt lat="44.55417" lon="-0.78552">
        <ele>60.22</ele>
        <time>2021-07-07T18:31:56Z</time>
      </trkpt>
      <trkpt lat="44.55646" lon="-0.78483">
        <ele>58.78</ele>
        <time>2021-07-07T18:32:09Z</time>
      </trkpt>
      <trkpt lat="44.55833" lon="-0.78427">
        <ele>59.26</ele>
        <time>2021-07-07T18:32:21Z</time>
      </trkpt>
      <trkpt lat="44.56078" lon="-0.78352">
        <ele>61.18</ele>
        <time>2021-07-07T18:32:35Z</time>
      </trkpt>
      <trkpt lat="44.56295" lon="-0.78288">
        <ele>61.66</ele>
        <time>2021-07-07T18:32:48Z</time>
      </trkpt>
      <trkpt lat="44.56478" lon="-0.78231">
        <ele>60.7</ele>
        <time>2021-07-07T18:32:58Z</time>
      </trkpt>
      <trkpt lat="44.56669" lon="-0.78174">
        <ele>63.1</ele>
        <time>2021-07-07T18:33:10Z</time>
      </trkpt>
      <trkpt lat="44.56922" lon="-0.78099">
        <ele>65.03</ele>
        <time>2021-07-07T18:33:25Z</time>
      </trkpt>
      <trkpt lat="44.57105" lon="-0.78046">
        <ele>66.95</ele>
        <time>2021-07-07T18:33:37Z</time>
      </trkpt>
      <trkpt lat="44.57223" lon="-0.7801">
        <ele>67.91</ele>
        <time>2021-07-07T18:33:47Z</time>
      </trkpt>
      <trkpt lat="44.57263" lon="-0.77998">
        <ele>68.39</ele>
        <time>2021-07-07T18:33:55Z</time>
      </trkpt>
      <trkpt lat="44.57269" lon="-0.77996">
        <ele>68.39</ele>
        <time>2021-07-07T18:33:56Z</time>
      </trkpt>
      <trkpt lat="44.5735" lon="-0.77972">
        <ele>68.39</ele>
        <time>2021-07-07T18:34:07Z</time>
      </trkpt>
      <trkpt lat="44.57491" lon="-0.7793">
        <ele>68.87</ele>
        <time>2021-07-07T18:34:22Z</time>
      </trkpt>
      <trkpt lat="44.57615" lon="-0.77891">
        <ele>67.43</ele>
        <time>2021-07-07T18:34:36Z</time>
      </trkpt>
      <trkpt lat="44.57645" lon="-0.77883">
        <ele>67.91</ele>
        <time>2021-07-07T18:34:42Z</time>
      </trkpt>
      <trkpt lat="44.57651" lon="-0.77882">
        <ele>67.91</ele>
        <time>2021-07-07T18:34:43Z</time>
      </trkpt>
      <trkpt lat="44.57657" lon="-0.7788">
        <ele>68.39</ele>
        <time>2021-07-07T18:34:44Z</time>
      </trkpt>
      <trkpt lat="44.57663" lon="-0.77879">
        <ele>68.87</ele>
        <time>2021-07-07T18:34:45Z</time>
      </trkpt>
      <trkpt lat="44.5767" lon="-0.77877">
        <ele>68.87</ele>
        <time>2021-07-07T18:34:46Z</time>
      </trkpt>
      <trkpt lat="44.57806" lon="-0.77836">
        <ele>68.87</ele>
        <time>2021-07-07T18:35:00Z</time>
      </trkpt>
      <trkpt lat="44.58073" lon="-0.77755">
        <ele>68.39</ele>
        <time>2021-07-07T18:35:20Z</time>
      </trkpt>
      <trkpt lat="44.58271" lon="-0.77696">
        <ele>66.95</ele>
        <time>2021-07-07T18:35:35Z</time>
      </trkpt>
      <trkpt lat="44.58524" lon="-0.7762">
        <ele>66.47</ele>
        <time>2021-07-07T18:35:50Z</time>
      </trkpt>
      <trkpt lat="44.58735" lon="-0.77555">
        <ele>65.99</ele>
        <time>2021-07-07T18:36:04Z</time>
      </trkpt>
      <trkpt lat="44.5899" lon="-0.77478">
        <ele>66.47</ele>
        <time>2021-07-07T18:36:21Z</time>
      </trkpt>
      <trkpt lat="44.59236" lon="-0.77404">
        <ele>64.55</ele>
        <time>2021-07-07T18:36:35Z</time>
      </trkpt>
      <trkpt lat="44.59496" lon="-0.77327">
        <ele>64.07</ele>
        <time>2021-07-07T18:36:48Z</time>
      </trkpt>
      <trkpt lat="44.59808" lon="-0.77232">
        <ele>65.51</ele>
        <time>2021-07-07T18:37:07Z</time>
      </trkpt>
      <trkpt lat="44.6004" lon="-0.77162">
        <ele>67.91</ele>
        <time>2021-07-07T18:37:22Z</time>
      </trkpt>
      <trkpt lat="44.60302" lon="-0.77083">
        <ele>68.87</ele>
        <time>2021-07-07T18:37:40Z</time>
      </trkpt>
      <trkpt lat="44.60429" lon="-0.77046">
        <ele>66.47</ele>
        <time>2021-07-07T18:37:52Z</time>
      </trkpt>
      <trkpt lat="44.60473" lon="-0.77031">
        <ele>69.35</ele>
        <time>2021-07-07T18:37:59Z</time>
      </trkpt>
      <trkpt lat="44.60491" lon="-0.77026">
        <ele>69.35</ele>
        <time>2021-07-07T18:38:30Z</time>
      </trkpt>
      <trkpt lat="44.60517" lon="-0.77018">
        <ele>69.35</ele>
        <time>2021-07-07T18:38:46Z</time>
      </trkpt>
      <trkpt lat="44.60539" lon="-0.77011">
        <ele>69.35</ele>
        <time>2021-07-07T18:38:59Z</time>
      </trkpt>
      <trkpt lat="44.60552" lon="-0.77007">
        <ele>69.83</ele>
        <time>2021-07-07T18:39:24Z</time>
      </trkpt>
      <trkpt lat="44.60598" lon="-0.76994">
        <ele>69.83</ele>
        <time>2021-07-07T18:39:37Z</time>
      </trkpt>
      <trkpt lat="44.606" lon="-0.76993">
        <ele>69.83</ele>
        <time>2021-07-07T18:39:50Z</time>
      </trkpt>
      <trkpt lat="44.60622" lon="-0.76986">
        <ele>69.35</ele>
        <time>2021-07-07T18:40:33Z</time>
      </trkpt>
      <trkpt lat="44.60697" lon="-0.76953">
        <ele>68.39</ele>
        <time>2021-07-07T18:40:47Z</time>
      </trkpt>
      <trkpt lat="44.60827" lon="-0.76883">
        <ele>67.91</ele>
        <time>2021-07-07T18:41:05Z</time>
      </trkpt>
      <trkpt lat="44.6096" lon="-0.76803">
        <ele>66.47</ele>
        <time>2021-07-07T18:41:22Z</time>
      </trkpt>
      <trkpt lat="44.61099" lon="-0.76718">
        <ele>65.03</ele>
        <time>2021-07-07T18:41:36Z</time>
      </trkpt>
      <trkpt lat="44.61299" lon="-0.76598">
        <ele>65.03</ele>
        <time>2021-07-07T18:41:51Z</time>
      </trkpt>
      <trkpt lat="44.61616" lon="-0.76407">
        <ele>64.07</ele>
        <time>2021-07-07T18:42:12Z</time>
      </trkpt>
      <trkpt lat="44.61928" lon="-0.76218">
        <ele>60.7</ele>
        <time>2021-07-07T18:42:31Z</time>
      </trkpt>
      <trkpt lat="44.62099" lon="-0.76114">
        <ele>61.66</ele>
        <time>2021-07-07T18:42:41Z</time>
      </trkpt>
      <trkpt lat="44.62455" lon="-0.75898">
        <ele>60.22</ele>
        <time>2021-07-07T18:43:02Z</time>
      </trkpt>
      <trkpt lat="44.62712" lon="-0.75743">
        <ele>58.78</ele>
        <time>2021-07-07T18:43:17Z</time>
      </trkpt>
      <trkpt lat="44.63014" lon="-0.75561">
        <ele>60.22</ele>
        <time>2021-07-07T18:43:34Z</time>
      </trkpt>
      <trkpt lat="44.63261" lon="-0.75411">
        <ele>59.74</ele>
        <time>2021-07-07T18:43:50Z</time>
      </trkpt>
      <trkpt lat="44.63459" lon="-0.75292">
        <ele>59.74</ele>
        <time>2021-07-07T18:44:02Z</time>
      </trkpt>
      <trkpt lat="44.63722" lon="-0.75133">
        <ele>59.74</ele>
        <time>2021-07-07T18:44:18Z</time>
      </trkpt>
      <trkpt lat="44.64113" lon="-0.74897">
        <ele>58.3</ele>
        <time>2021-07-07T18:44:42Z</time>
      </trkpt>
      <trkpt lat="44.64421" lon="-0.74711">
        <ele>58.3</ele>
        <time>2021-07-07T18:45:01Z</time>
      </trkpt>
      <trkpt lat="44.64703" lon="-0.74541">
        <ele>59.26</ele>
        <time>2021-07-07T18:45:19Z</time>
      </trkpt>
      <trkpt lat="44.64968" lon="-0.74381">
        <ele>57.82</ele>
        <time>2021-07-07T18:45:36Z</time>
      </trkpt>
      <trkpt lat="44.65162" lon="-0.74266">
        <ele>55.41</ele>
        <time>2021-07-07T18:45:48Z</time>
      </trkpt>
      <trkpt lat="44.654" lon="-0.7412">
        <ele>54.93</ele>
        <time>2021-07-07T18:46:01Z</time>
      </trkpt>
      <trkpt lat="44.65634" lon="-0.73979">
        <ele>57.34</ele>
        <time>2021-07-07T18:46:16Z</time>
      </trkpt>
      <trkpt lat="44.65911" lon="-0.73813">
        <ele>58.78</ele>
        <time>2021-07-07T18:46:32Z</time>
      </trkpt>
      <trkpt lat="44.66113" lon="-0.7369">
        <ele>56.37</ele>
        <time>2021-07-07T18:46:44Z</time>
      </trkpt>
      <trkpt lat="44.66411" lon="-0.73511">
        <ele>54.45</ele>
        <time>2021-07-07T18:47:01Z</time>
      </trkpt>
      <trkpt lat="44.66802" lon="-0.73274">
        <ele>55.41</ele>
        <time>2021-07-07T18:47:24Z</time>
      </trkpt>
      <trkpt lat="44.67105" lon="-0.73093">
        <ele>56.37</ele>
        <time>2021-07-07T18:47:42Z</time>
      </trkpt>
      <trkpt lat="44.67383" lon="-0.72926">
        <ele>56.37</ele>
        <time>2021-07-07T18:47:59Z</time>
      </trkpt>
      <trkpt lat="44.67679" lon="-0.72748">
        <ele>60.7</ele>
        <time>2021-07-07T18:48:16Z</time>
      </trkpt>
      <trkpt lat="44.67913" lon="-0.72605">
        <ele>60.7</ele>
        <time>2021-07-07T18:48:31Z</time>
      </trkpt>
      <trkpt lat="44.6809" lon="-0.72491">
        <ele>57.34</ele>
        <time>2021-07-07T18:48:42Z</time>
      </trkpt>
      <trkpt lat="44.68264" lon="-0.72345">
        <ele>55.89</ele>
        <time>2021-07-07T18:48:54Z</time>
      </trkpt>
      <trkpt lat="44.68447" lon="-0.7217">
        <ele>57.34</ele>
        <time>2021-07-07T18:49:07Z</time>
      </trkpt>
      <trkpt lat="44.68662" lon="-0.7196">
        <ele>56.86</ele>
        <time>2021-07-07T18:49:22Z</time>
      </trkpt>
      <trkpt lat="44.68893" lon="-0.71739">
        <ele>55.89</ele>
        <time>2021-07-07T18:49:37Z</time>
      </trkpt>
      <trkpt lat="44.69073" lon="-0.71566">
        <ele>54.45</ele>
        <time>2021-07-07T18:49:51Z</time>
      </trkpt>
      <trkpt lat="44.69274" lon="-0.7137">
        <ele>54.93</ele>
        <time>2021-07-07T18:50:05Z</time>
      </trkpt>
      <trkpt lat="44.69531" lon="-0.71124">
        <ele>56.37</ele>
        <time>2021-07-07T18:50:23Z</time>
      </trkpt>
      <trkpt lat="44.69714" lon="-0.70947">
        <ele>57.34</ele>
        <time>2021-07-07T18:50:37Z</time>
      </trkpt>
      <trkpt lat="44.69842" lon="-0.70822">
        <ele>56.86</ele>
        <time>2021-07-07T18:50:47Z</time>
      </trkpt>
      <trkpt lat="44.70003" lon="-0.70668">
        <ele>56.86</ele>
        <time>2021-07-07T18:51:01Z</time>
      </trkpt>
      <trkpt lat="44.70045" lon="-0.70628">
        <ele>57.34</ele>
        <time>2021-07-07T18:51:08Z</time>
      </trkpt>
      <trkpt lat="44.70071" lon="-0.70603">
        <ele>56.37</ele>
        <time>2021-07-07T18:51:18Z</time>
      </trkpt>
      <trkpt lat="44.70085" lon="-0.70588">
        <ele>55.41</ele>
        <time>2021-07-07T18:51:45Z</time>
      </trkpt>
      <trkpt lat="44.70103" lon="-0.70562">
        <ele>54.93</ele>
        <time>2021-07-07T18:51:58Z</time>
      </trkpt>
      <trkpt lat="44.70111" lon="-0.70543">
        <ele>53.97</ele>
        <time>2021-07-07T18:52:03Z</time>
      </trkpt>
      <trkpt lat="44.70116" lon="-0.70542">
        <ele>53.97</ele>
        <time>2021-07-07T18:52:04Z</time>
      </trkpt>
      <trkpt lat="44.70116" lon="-0.70542">
        <ele>53.97</ele>
        <time>2021-07-07T18:52:05Z</time>
      </trkpt>
      <trkpt lat="44.70131" lon="-0.70547">
        <ele>53.97</ele>
        <time>2021-07-07T18:52:06Z</time>
      </trkpt>
      <trkpt lat="44.70145" lon="-0.70534">
        <ele>53.97</ele>
        <time>2021-07-07T18:52:07Z</time>
      </trkpt>
      <trkpt lat="44.70145" lon="-0.70534">
        <ele>54.93</ele>
        <time>2021-07-07T18:52:08Z</time>
      </trkpt>
      <trkpt lat="44.70163" lon="-0.70515">
        <ele>54.93</ele>
        <time>2021-07-07T18:52:09Z</time>
      </trkpt>
      <trkpt lat="44.70242" lon="-0.70438">
        <ele>53.97</ele>
        <time>2021-07-07T18:52:17Z</time>
      </trkpt>
      <trkpt lat="44.70398" lon="-0.70287">
        <ele>52.05</ele>
        <time>2021-07-07T18:52:28Z</time>
      </trkpt>
      <trkpt lat="44.70598" lon="-0.70096">
        <ele>47.72</ele>
        <time>2021-07-07T18:52:39Z</time>
      </trkpt>
      <trkpt lat="44.70782" lon="-0.69918">
        <ele>46.76</ele>
        <time>2021-07-07T18:52:50Z</time>
      </trkpt>
      <trkpt lat="44.71" lon="-0.69712">
        <ele>48.68</ele>
        <time>2021-07-07T18:53:02Z</time>
      </trkpt>
      <trkpt lat="44.71294" lon="-0.69425">
        <ele>48.68</ele>
        <time>2021-07-07T18:53:19Z</time>
      </trkpt>
      <trkpt lat="44.71504" lon="-0.6922">
        <ele>47.72</ele>
        <time>2021-07-07T18:53:33Z</time>
      </trkpt>
      <trkpt lat="44.71568" lon="-0.69159">
        <ele>48.2</ele>
        <time>2021-07-07T18:53:39Z</time>
      </trkpt>
      <trkpt lat="44.71575" lon="-0.69154">
        <ele>47.72</ele>
        <time>2021-07-07T18:53:40Z</time>
      </trkpt>
      <trkpt lat="44.71579" lon="-0.69129">
        <ele>48.2</ele>
        <time>2021-07-07T18:53:42Z</time>
      </trkpt>
      <trkpt lat="44.71584" lon="-0.69122">
        <ele>48.68</ele>
        <time>2021-07-07T18:53:43Z</time>
      </trkpt>
      <trkpt lat="44.71604" lon="-0.69125">
        <ele>49.65</ele>
        <time>2021-07-07T18:53:45Z</time>
      </trkpt>
      <trkpt lat="44.71611" lon="-0.69119">
        <ele>49.65</ele>
        <time>2021-07-07T18:53:46Z</time>
      </trkpt>
      <trkpt lat="44.71618" lon="-0.69111">
        <ele>50.61</ele>
        <time>2021-07-07T18:53:47Z</time>
      </trkpt>
      <trkpt lat="44.71715" lon="-0.69022">
        <ele>48.68</ele>
        <time>2021-07-07T18:53:56Z</time>
      </trkpt>
      <trkpt lat="44.71866" lon="-0.68877">
        <ele>47.24</ele>
        <time>2021-07-07T18:54:06Z</time>
      </trkpt>
      <trkpt lat="44.72149" lon="-0.68605">
        <ele>46.76</ele>
        <time>2021-07-07T18:54:22Z</time>
      </trkpt>
      <trkpt lat="44.72269" lon="-0.68457">
        <ele>46.76</ele>
        <time>2021-07-07T18:54:30Z</time>
      </trkpt>
      <trkpt lat="44.72392" lon="-0.68217">
        <ele>44.84</ele>
        <time>2021-07-07T18:54:42Z</time>
      </trkpt>
      <trkpt lat="44.72515" lon="-0.67968">
        <ele>41.95</ele>
        <time>2021-07-07T18:54:54Z</time>
      </trkpt>
      <trkpt lat="44.72617" lon="-0.67761">
        <ele>41.47</ele>
        <time>2021-07-07T18:55:04Z</time>
      </trkpt>
      <trkpt lat="44.72727" lon="-0.67543">
        <ele>43.88</ele>
        <time>2021-07-07T18:55:15Z</time>
      </trkpt>
      <trkpt lat="44.72858" lon="-0.67275">
        <ele>44.36</ele>
        <time>2021-07-07T18:55:30Z</time>
      </trkpt>
      <trkpt lat="44.73009" lon="-0.66978">
        <ele>46.28</ele>
        <time>2021-07-07T18:55:46Z</time>
      </trkpt>
      <trkpt lat="44.73096" lon="-0.66804">
        <ele>49.16</ele>
        <time>2021-07-07T18:55:58Z</time>
      </trkpt>
      <trkpt lat="44.73182" lon="-0.66641">
        <ele>49.65</ele>
        <time>2021-07-07T18:56:11Z</time>
      </trkpt>
      <trkpt lat="44.73207" lon="-0.66597">
        <ele>49.16</ele>
        <time>2021-07-07T18:56:16Z</time>
      </trkpt>
      <trkpt lat="44.73212" lon="-0.66579">
        <ele>49.16</ele>
        <time>2021-07-07T18:56:17Z</time>
      </trkpt>
      <trkpt lat="44.73212" lon="-0.66579">
        <ele>49.16</ele>
        <time>2021-07-07T18:56:18Z</time>
      </trkpt>
      <trkpt lat="44.73219" lon="-0.66534">
        <ele>48.68</ele>
        <time>2021-07-07T18:56:22Z</time>
      </trkpt>
      <trkpt lat="44.73217" lon="-0.66521">
        <ele>48.2</ele>
        <time>2021-07-07T18:56:23Z</time>
      </trkpt>
      <trkpt lat="44.73195" lon="-0.66331">
        <ele>47.72</ele>
        <time>2021-07-07T18:56:32Z</time>
      </trkpt>
      <trkpt lat="44.73167" lon="-0.66049">
        <ele>46.76</ele>
        <time>2021-07-07T18:56:43Z</time>
      </trkpt>
      <trkpt lat="44.73157" lon="-0.65794">
        <ele>46.28</ele>
        <time>2021-07-07T18:56:54Z</time>
      </trkpt>
      <trkpt lat="44.73157" lon="-0.65644">
        <ele>44.36</ele>
        <time>2021-07-07T18:57:02Z</time>
      </trkpt>
      <trkpt lat="44.73157" lon="-0.65447">
        <ele>44.36</ele>
        <time>2021-07-07T18:57:14Z</time>
      </trkpt>
      <trkpt lat="44.73156" lon="-0.65207">
        <ele>44.36</ele>
        <time>2021-07-07T18:57:27Z</time>
      </trkpt>
      <trkpt lat="44.73153" lon="-0.65042">
        <ele>47.72</ele>
        <time>2021-07-07T18:57:39Z</time>
      </trkpt>
      <trkpt lat="44.73152" lon="-0.65031">
        <ele>48.2</ele>
        <time>2021-07-07T18:57:40Z</time>
      </trkpt>
      <trkpt lat="44.73152" lon="-0.65023">
        <ele>48.2</ele>
        <time>2021-07-07T18:57:41Z</time>
      </trkpt>
      <trkpt lat="44.73143" lon="-0.65012">
        <ele>48.2</ele>
        <time>2021-07-07T18:57:42Z</time>
      </trkpt>
      <trkpt lat="44.73143" lon="-0.64999">
        <ele>48.68</ele>
        <time>2021-07-07T18:57:43Z</time>
      </trkpt>
      <trkpt lat="44.73152" lon="-0.64989">
        <ele>48.68</ele>
        <time>2021-07-07T18:57:44Z</time>
      </trkpt>
      <trkpt lat="44.73152" lon="-0.64978">
        <ele>48.68</ele>
        <time>2021-07-07T18:57:45Z</time>
      </trkpt>
      <trkpt lat="44.73151" lon="-0.64966">
        <ele>48.68</ele>
        <time>2021-07-07T18:57:46Z</time>
      </trkpt>
      <trkpt lat="44.73141" lon="-0.64805">
        <ele>47.72</ele>
        <time>2021-07-07T18:57:56Z</time>
      </trkpt>
      <trkpt lat="44.73113" lon="-0.64567">
        <ele>45.8</ele>
        <time>2021-07-07T18:58:07Z</time>
      </trkpt>
      <trkpt lat="44.73094" lon="-0.64296">
        <ele>46.28</ele>
        <time>2021-07-07T18:58:20Z</time>
      </trkpt>
      <trkpt lat="44.73068" lon="-0.63933">
        <ele>44.84</ele>
        <time>2021-07-07T18:58:36Z</time>
      </trkpt>
      <trkpt lat="44.73049" lon="-0.63648">
        <ele>43.88</ele>
        <time>2021-07-07T18:58:49Z</time>
      </trkpt>
      <trkpt lat="44.73019" lon="-0.63222">
        <ele>44.36</ele>
        <time>2021-07-07T18:59:07Z</time>
      </trkpt>
      <trkpt lat="44.72988" lon="-0.63036">
        <ele>44.36</ele>
        <time>2021-07-07T18:59:16Z</time>
      </trkpt>
      <trkpt lat="44.72939" lon="-0.62803">
        <ele>44.84</ele>
        <time>2021-07-07T18:59:31Z</time>
      </trkpt>
      <trkpt lat="44.72921" lon="-0.62717">
        <ele>44.36</ele>
        <time>2021-07-07T18:59:40Z</time>
      </trkpt>
      <trkpt lat="44.72889" lon="-0.62565">
        <ele>43.4</ele>
        <time>2021-07-07T18:59:49Z</time>
      </trkpt>
      <trkpt lat="44.72833" lon="-0.62292">
        <ele>41.47</ele>
        <time>2021-07-07T19:00:01Z</time>
      </trkpt>
      <trkpt lat="44.7281" lon="-0.62133">
        <ele>41.95</ele>
        <time>2021-07-07T19:00:09Z</time>
      </trkpt>
      <trkpt lat="44.72807" lon="-0.62111">
        <ele>42.44</ele>
        <time>2021-07-07T19:00:10Z</time>
      </trkpt>
      <trkpt lat="44.72793" lon="-0.62099">
        <ele>42.44</ele>
        <time>2021-07-07T19:00:11Z</time>
      </trkpt>
      <trkpt lat="44.72793" lon="-0.62091">
        <ele>42.92</ele>
        <time>2021-07-07T19:00:12Z</time>
      </trkpt>
      <trkpt lat="44.72792" lon="-0.62082">
        <ele>42.92</ele>
        <time>2021-07-07T19:00:13Z</time>
      </trkpt>
      <trkpt lat="44.72792" lon="-0.62079">
        <ele>42.92</ele>
        <time>2021-07-07T19:00:14Z</time>
      </trkpt>
      <trkpt lat="44.72799" lon="-0.6207">
        <ele>42.92</ele>
        <time>2021-07-07T19:00:15Z</time>
      </trkpt>
      <trkpt lat="44.72799" lon="-0.6207">
        <ele>42.92</ele>
        <time>2021-07-07T19:00:16Z</time>
      </trkpt>
      <trkpt lat="44.72801" lon="-0.62054">
        <ele>42.92</ele>
        <time>2021-07-07T19:00:17Z</time>
      </trkpt>
      <trkpt lat="44.72799" lon="-0.6203">
        <ele>42.92</ele>
        <time>2021-07-07T19:00:18Z</time>
      </trkpt>
      <trkpt lat="44.72798" lon="-0.62017">
        <ele>43.4</ele>
        <time>2021-07-07T19:00:19Z</time>
      </trkpt>
      <trkpt lat="44.72778" lon="-0.61848">
        <ele>41.47</ele>
        <time>2021-07-07T19:00:28Z</time>
      </trkpt>
      <trkpt lat="44.72753" lon="-0.61618">
        <ele>36.67</ele>
        <time>2021-07-07T19:00:38Z</time>
      </trkpt>
      <trkpt lat="44.72715" lon="-0.6128">
        <ele>34.74</ele>
        <time>2021-07-07T19:00:51Z</time>
      </trkpt>
      <trkpt lat="44.72657" lon="-0.60914">
        <ele>31.86</ele>
        <time>2021-07-07T19:01:07Z</time>
      </trkpt>
      <trkpt lat="44.72645" lon="-0.60676">
        <ele>30.42</ele>
        <time>2021-07-07T19:01:18Z</time>
      </trkpt>
      <trkpt lat="44.72685" lon="-0.60514">
        <ele>27.53</ele>
        <time>2021-07-07T19:01:26Z</time>
      </trkpt>
      <trkpt lat="44.72741" lon="-0.60313">
        <ele>25.61</ele>
        <time>2021-07-07T19:01:36Z</time>
      </trkpt>
      <trkpt lat="44.72758" lon="-0.60227">
        <ele>23.21</ele>
        <time>2021-07-07T19:01:42Z</time>
      </trkpt>
      <trkpt lat="44.7276" lon="-0.6022">
        <ele>22.73</ele>
        <time>2021-07-07T19:01:43Z</time>
      </trkpt>
      <trkpt lat="44.72763" lon="-0.60206">
        <ele>23.69</ele>
        <time>2021-07-07T19:01:51Z</time>
      </trkpt>
      <trkpt lat="44.72768" lon="-0.60178">
        <ele>23.21</ele>
        <time>2021-07-07T19:02:02Z</time>
      </trkpt>
      <trkpt lat="44.72797" lon="-0.60132">
        <ele>25.13</ele>
        <time>2021-07-07T19:02:14Z</time>
      </trkpt>
      <trkpt lat="44.72843" lon="-0.60102">
        <ele>26.09</ele>
        <time>2021-07-07T19:02:29Z</time>
      </trkpt>
      <trkpt lat="44.72879" lon="-0.60081">
        <ele>25.61</ele>
        <time>2021-07-07T19:02:40Z</time>
      </trkpt>
      <trkpt lat="44.72889" lon="-0.60074">
        <ele>24.65</ele>
        <time>2021-07-07T19:02:54Z</time>
      </trkpt>
      <trkpt lat="44.72894" lon="-0.60047">
        <ele>24.17</ele>
        <time>2021-07-07T19:03:03Z</time>
      </trkpt>
      <trkpt lat="44.72902" lon="-0.60041">
        <ele>24.17</ele>
        <time>2021-07-07T19:03:04Z</time>
      </trkpt>
      <trkpt lat="44.72906" lon="-0.60041">
        <ele>24.17</ele>
        <time>2021-07-07T19:03:05Z</time>
      </trkpt>
      <trkpt lat="44.72906" lon="-0.60041">
        <ele>24.17</ele>
        <time>2021-07-07T19:03:06Z</time>
      </trkpt>
      <trkpt lat="44.7291" lon="-0.60042">
        <ele>24.17</ele>
        <time>2021-07-07T19:03:07Z</time>
      </trkpt>
      <trkpt lat="44.72912" lon="-0.60045">
        <ele>24.17</ele>
        <time>2021-07-07T19:03:08Z</time>
      </trkpt>
      <trkpt lat="44.72916" lon="-0.60058">
        <ele>24.17</ele>
        <time>2021-07-07T19:03:09Z</time>
      </trkpt>
      <trkpt lat="44.72921" lon="-0.6006">
        <ele>23.69</ele>
        <time>2021-07-07T19:03:10Z</time>
      </trkpt>
      <trkpt lat="44.72926" lon="-0.60062">
        <ele>23.69</ele>
        <time>2021-07-07T19:03:11Z</time>
      </trkpt>
      <trkpt lat="44.72932" lon="-0.60063">
        <ele>23.21</ele>
        <time>2021-07-07T19:03:12Z</time>
      </trkpt>
      <trkpt lat="44.72993" lon="-0.60075">
        <ele>23.21</ele>
        <time>2021-07-07T19:03:20Z</time>
      </trkpt>
      <trkpt lat="44.73" lon="-0.60072">
        <ele>23.21</ele>
        <time>2021-07-07T19:03:21Z</time>
      </trkpt>
      <trkpt lat="44.73007" lon="-0.6007">
        <ele>23.21</ele>
        <time>2021-07-07T19:03:22Z</time>
      </trkpt>
      <trkpt lat="44.73037" lon="-0.6006">
        <ele>26.09</ele>
        <time>2021-07-07T19:03:30Z</time>
      </trkpt>
      <trkpt lat="44.73057" lon="-0.60049">
        <ele>25.13</ele>
        <time>2021-07-07T19:03:54Z</time>
      </trkpt>
      <trkpt lat="44.73142" lon="-0.6001">
        <ele>24.17</ele>
        <time>2021-07-07T19:04:05Z</time>
      </trkpt>
      <trkpt lat="44.7324" lon="-0.59985">
        <ele>25.13</ele>
        <time>2021-07-07T19:04:15Z</time>
      </trkpt>
      <trkpt lat="44.73375" lon="-0.59936">
        <ele>29.46</ele>
        <time>2021-07-07T19:04:27Z</time>
      </trkpt>
      <trkpt lat="44.73488" lon="-0.59862">
        <ele>28.5</ele>
        <time>2021-07-07T19:04:37Z</time>
      </trkpt>
      <trkpt lat="44.73609" lon="-0.59746">
        <ele>35.71</ele>
        <time>2021-07-07T19:04:47Z</time>
      </trkpt>
      <trkpt lat="44.73704" lon="-0.59649">
        <ele>39.55</ele>
        <time>2021-07-07T19:04:55Z</time>
      </trkpt>
      <trkpt lat="44.73745" lon="-0.59615">
        <ele>40.03</ele>
        <time>2021-07-07T19:05:00Z</time>
      </trkpt>
      <trkpt lat="44.73756" lon="-0.59608">
        <ele>40.03</ele>
        <time>2021-07-07T19:05:01Z</time>
      </trkpt>
      <trkpt lat="44.73769" lon="-0.59604">
        <ele>40.03</ele>
        <time>2021-07-07T19:05:02Z</time>
      </trkpt>
      <trkpt lat="44.73782" lon="-0.596">
        <ele>39.55</ele>
        <time>2021-07-07T19:05:03Z</time>
      </trkpt>
      <trkpt lat="44.73795" lon="-0.596">
        <ele>39.55</ele>
        <time>2021-07-07T19:05:04Z</time>
      </trkpt>
      <trkpt lat="44.73808" lon="-0.59601">
        <ele>40.51</ele>
        <time>2021-07-07T19:05:05Z</time>
      </trkpt>
      <trkpt lat="44.73821" lon="-0.59603">
        <ele>40.51</ele>
        <time>2021-07-07T19:05:06Z</time>
      </trkpt>
      <trkpt lat="44.73972" lon="-0.59631">
        <ele>35.23</ele>
        <time>2021-07-07T19:05:18Z</time>
      </trkpt>
      <trkpt lat="44.73983" lon="-0.59636">
        <ele>35.71</ele>
        <time>2021-07-07T19:05:19Z</time>
      </trkpt>
      <trkpt lat="44.74093" lon="-0.59681">
        <ele>33.78</ele>
        <time>2021-07-07T19:05:29Z</time>
      </trkpt>
      <trkpt lat="44.74243" lon="-0.59713">
        <ele>35.71</ele>
        <time>2021-07-07T19:05:44Z</time>
      </trkpt>
      <trkpt lat="44.74285" lon="-0.59716">
        <ele>35.71</ele>
        <time>2021-07-07T19:05:52Z</time>
      </trkpt>
      <trkpt lat="44.74313" lon="-0.59708">
        <ele>34.74</ele>
        <time>2021-07-07T19:05:55Z</time>
      </trkpt>
      <trkpt lat="44.74313" lon="-0.59708">
        <ele>34.74</ele>
        <time>2021-07-07T19:05:56Z</time>
      </trkpt>
      <trkpt lat="44.74321" lon="-0.59702">
        <ele>33.78</ele>
        <time>2021-07-07T19:05:58Z</time>
      </trkpt>
      <trkpt lat="44.74327" lon="-0.59696">
        <ele>33.3</ele>
        <time>2021-07-07T19:05:59Z</time>
      </trkpt>
      <trkpt lat="44.74333" lon="-0.59689">
        <ele>32.34</ele>
        <time>2021-07-07T19:06:00Z</time>
      </trkpt>
      <trkpt lat="44.74416" lon="-0.59589">
        <ele>28.98</ele>
        <time>2021-07-07T19:06:09Z</time>
      </trkpt>
      <trkpt lat="44.74567" lon="-0.59406">
        <ele>28.5</ele>
        <time>2021-07-07T19:06:21Z</time>
      </trkpt>
      <trkpt lat="44.74696" lon="-0.59244">
        <ele>26.09</ele>
        <time>2021-07-07T19:06:33Z</time>
      </trkpt>
      <trkpt lat="44.74723" lon="-0.59196">
        <ele>23.21</ele>
        <time>2021-07-07T19:06:38Z</time>
      </trkpt>
      <trkpt lat="44.74734" lon="-0.5918">
        <ele>25.13</ele>
        <time>2021-07-07T19:07:08Z</time>
      </trkpt>
      <trkpt lat="44.74743" lon="-0.59167">
        <ele>25.13</ele>
        <time>2021-07-07T19:07:10Z</time>
      </trkpt>
      <trkpt lat="44.74748" lon="-0.5916">
        <ele>25.13</ele>
        <time>2021-07-07T19:07:11Z</time>
      </trkpt>
      <trkpt lat="44.74753" lon="-0.59152">
        <ele>25.13</ele>
        <time>2021-07-07T19:07:12Z</time>
      </trkpt>
      <trkpt lat="44.74838" lon="-0.59062">
        <ele>24.65</ele>
        <time>2021-07-07T19:07:21Z</time>
      </trkpt>
      <trkpt lat="44.74896" lon="-0.58955">
        <ele>20.32</ele>
        <time>2021-07-07T19:07:31Z</time>
      </trkpt>
      <trkpt lat="44.7494" lon="-0.58872">
        <ele>20.81</ele>
        <time>2021-07-07T19:07:36Z</time>
      </trkpt>
      <trkpt lat="44.7494" lon="-0.58872">
        <ele>20.32</ele>
        <time>2021-07-07T19:07:37Z</time>
      </trkpt>
      <trkpt lat="44.74951" lon="-0.5886">
        <ele>19.36</ele>
        <time>2021-07-07T19:07:38Z</time>
      </trkpt>
      <trkpt lat="44.74975" lon="-0.58844">
        <ele>19.36</ele>
        <time>2021-07-07T19:07:39Z</time>
      </trkpt>
      <trkpt lat="44.74989" lon="-0.5884">
        <ele>18.88</ele>
        <time>2021-07-07T19:07:40Z</time>
      </trkpt>
      <trkpt lat="44.74989" lon="-0.5884">
        <ele>17.44</ele>
        <time>2021-07-07T19:07:41Z</time>
      </trkpt>
      <trkpt lat="44.75159" lon="-0.58797">
        <ele>15.04</ele>
        <time>2021-07-07T19:07:53Z</time>
      </trkpt>
      <trkpt lat="44.7528" lon="-0.58764">
        <ele>18.4</ele>
        <time>2021-07-07T19:08:03Z</time>
      </trkpt>
      <trkpt lat="44.75328" lon="-0.58724">
        <ele>20.81</ele>
        <time>2021-07-07T19:08:13Z</time>
      </trkpt>
      <trkpt lat="44.75341" lon="-0.58713">
        <ele>21.29</ele>
        <time>2021-07-07T19:08:17Z</time>
      </trkpt>
      <trkpt lat="44.75345" lon="-0.5871">
        <ele>21.29</ele>
        <time>2021-07-07T19:08:18Z</time>
      </trkpt>
      <trkpt lat="44.7535" lon="-0.58706">
        <ele>21.77</ele>
        <time>2021-07-07T19:08:20Z</time>
      </trkpt>
      <trkpt lat="44.7536" lon="-0.58681">
        <ele>21.29</ele>
        <time>2021-07-07T19:08:21Z</time>
      </trkpt>
      <trkpt lat="44.75365" lon="-0.5868">
        <ele>21.29</ele>
        <time>2021-07-07T19:08:22Z</time>
      </trkpt>
      <trkpt lat="44.75365" lon="-0.5868">
        <ele>21.29</ele>
        <time>2021-07-07T19:08:23Z</time>
      </trkpt>
      <trkpt lat="44.75365" lon="-0.5868">
        <ele>21.29</ele>
        <time>2021-07-07T19:08:24Z</time>
      </trkpt>
      <trkpt lat="44.75381" lon="-0.58682">
        <ele>19.84</ele>
        <time>2021-07-07T19:08:25Z</time>
      </trkpt>
      <trkpt lat="44.75395" lon="-0.58671">
        <ele>19.36</ele>
        <time>2021-07-07T19:08:26Z</time>
      </trkpt>
      <trkpt lat="44.75395" lon="-0.58671">
        <ele>18.88</ele>
        <time>2021-07-07T19:08:27Z</time>
      </trkpt>
      <trkpt lat="44.75496" lon="-0.58584">
        <ele>21.29</ele>
        <time>2021-07-07T19:08:38Z</time>
      </trkpt>
      <trkpt lat="44.75542" lon="-0.58544">
        <ele>22.25</ele>
        <time>2021-07-07T19:08:43Z</time>
      </trkpt>
      <trkpt lat="44.75555" lon="-0.58533">
        <ele>22.25</ele>
        <time>2021-07-07T19:08:44Z</time>
      </trkpt>
      <trkpt lat="44.75555" lon="-0.58533">
        <ele>22.25</ele>
        <time>2021-07-07T19:08:45Z</time>
      </trkpt>
      <trkpt lat="44.75554" lon="-0.58516">
        <ele>22.25</ele>
        <time>2021-07-07T19:08:47Z</time>
      </trkpt>
      <trkpt lat="44.75561" lon="-0.58505">
        <ele>22.25</ele>
        <time>2021-07-07T19:08:48Z</time>
      </trkpt>
      <trkpt lat="44.75566" lon="-0.58503">
        <ele>22.73</ele>
        <time>2021-07-07T19:08:49Z</time>
      </trkpt>
      <trkpt lat="44.75571" lon="-0.585">
        <ele>22.73</ele>
        <time>2021-07-07T19:08:50Z</time>
      </trkpt>
      <trkpt lat="44.75584" lon="-0.58507">
        <ele>22.73</ele>
        <time>2021-07-07T19:08:51Z</time>
      </trkpt>
      <trkpt lat="44.75587" lon="-0.58504">
        <ele>23.21</ele>
        <time>2021-07-07T19:08:53Z</time>
      </trkpt>
      <trkpt lat="44.7559" lon="-0.58502">
        <ele>23.21</ele>
        <time>2021-07-07T19:08:54Z</time>
      </trkpt>
      <trkpt lat="44.75593" lon="-0.58499">
        <ele>23.69</ele>
        <time>2021-07-07T19:08:55Z</time>
      </trkpt>
      <trkpt lat="44.75596" lon="-0.58496">
        <ele>24.17</ele>
        <time>2021-07-07T19:08:56Z</time>
      </trkpt>
      <trkpt lat="44.75599" lon="-0.58493">
        <ele>24.17</ele>
        <time>2021-07-07T19:08:57Z</time>
      </trkpt>
      <trkpt lat="44.75599" lon="-0.58493">
        <ele>24.17</ele>
        <time>2021-07-07T19:09:16Z</time>
      </trkpt>
      <trkpt lat="44.75617" lon="-0.58479">
        <ele>23.69</ele>
        <time>2021-07-07T19:09:39Z</time>
      </trkpt>
      <trkpt lat="44.75646" lon="-0.58454">
        <ele>24.17</ele>
        <time>2021-07-07T19:09:56Z</time>
      </trkpt>
      <trkpt lat="44.75665" lon="-0.58438">
        <ele>23.21</ele>
        <time>2021-07-07T19:10:42Z</time>
      </trkpt>
      <trkpt lat="44.75698" lon="-0.58409">
        <ele>24.17</ele>
        <time>2021-07-07T19:10:54Z</time>
      </trkpt>
      <trkpt lat="44.75714" lon="-0.58396">
        <ele>24.17</ele>
        <time>2021-07-07T19:11:43Z</time>
      </trkpt>
      <trkpt lat="44.75743" lon="-0.5837">
        <ele>23.69</ele>
        <time>2021-07-07T19:11:53Z</time>
      </trkpt>
      <trkpt lat="44.75777" lon="-0.58346">
        <ele>23.69</ele>
        <time>2021-07-07T19:12:01Z</time>
      </trkpt>
      <trkpt lat="44.75774" lon="-0.58335">
        <ele>23.69</ele>
        <time>2021-07-07T19:12:02Z</time>
      </trkpt>
      <trkpt lat="44.75773" lon="-0.58329">
        <ele>23.21</ele>
        <time>2021-07-07T19:12:03Z</time>
      </trkpt>
      <trkpt lat="44.75772" lon="-0.58324">
        <ele>23.21</ele>
        <time>2021-07-07T19:12:04Z</time>
      </trkpt>
      <trkpt lat="44.75771" lon="-0.58317">
        <ele>22.73</ele>
        <time>2021-07-07T19:12:05Z</time>
      </trkpt>
      <trkpt lat="44.75769" lon="-0.58311">
        <ele>22.25</ele>
        <time>2021-07-07T19:12:06Z</time>
      </trkpt>
      <trkpt lat="44.75768" lon="-0.58303">
        <ele>22.25</ele>
        <time>2021-07-07T19:12:07Z</time>
      </trkpt>
      <trkpt lat="44.75766" lon="-0.58295">
        <ele>21.77</ele>
        <time>2021-07-07T19:12:08Z</time>
      </trkpt>
      <trkpt lat="44.75766" lon="-0.58285">
        <ele>22.25</ele>
        <time>2021-07-07T19:12:09Z</time>
      </trkpt>
      <trkpt lat="44.75766" lon="-0.58274">
        <ele>22.25</ele>
        <time>2021-07-07T19:12:10Z</time>
      </trkpt>
      <trkpt lat="44.7577" lon="-0.58118">
        <ele>19.36</ele>
        <time>2021-07-07T19:12:20Z</time>
      </trkpt>
      <trkpt lat="44.75768" lon="-0.57901">
        <ele>20.81</ele>
        <time>2021-07-07T19:12:33Z</time>
      </trkpt>
      <trkpt lat="44.75762" lon="-0.57661">
        <ele>23.69</ele>
        <time>2021-07-07T19:12:47Z</time>
      </trkpt>
      <trkpt lat="44.75756" lon="-0.57484">
        <ele>23.21</ele>
        <time>2021-07-07T19:12:59Z</time>
      </trkpt>
      <trkpt lat="44.75751" lon="-0.57439">
        <ele>24.17</ele>
        <time>2021-07-07T19:13:03Z</time>
      </trkpt>
      <trkpt lat="44.75747" lon="-0.57424">
        <ele>23.69</ele>
        <time>2021-07-07T19:13:04Z</time>
      </trkpt>
      <trkpt lat="44.75743" lon="-0.57411">
        <ele>23.21</ele>
        <time>2021-07-07T19:13:05Z</time>
      </trkpt>
      <trkpt lat="44.75686" lon="-0.57274">
        <ele>22.25</ele>
        <time>2021-07-07T19:13:17Z</time>
      </trkpt>
      <trkpt lat="44.7567" lon="-0.5725">
        <ele>22.25</ele>
        <time>2021-07-07T19:13:28Z</time>
      </trkpt>
      <trkpt lat="44.75665" lon="-0.57243">
        <ele>22.73</ele>
        <time>2021-07-07T19:13:32Z</time>
      </trkpt>
      <trkpt lat="44.75652" lon="-0.57246">
        <ele>22.25</ele>
        <time>2021-07-07T19:13:35Z</time>
      </trkpt>
      <trkpt lat="44.75649" lon="-0.57234">
        <ele>22.25</ele>
        <time>2021-07-07T19:13:36Z</time>
      </trkpt>
      <trkpt lat="44.75648" lon="-0.57229">
        <ele>22.25</ele>
        <time>2021-07-07T19:13:37Z</time>
      </trkpt>
      <trkpt lat="44.75648" lon="-0.57224">
        <ele>22.25</ele>
        <time>2021-07-07T19:13:38Z</time>
      </trkpt>
      <trkpt lat="44.75653" lon="-0.57217">
        <ele>22.25</ele>
        <time>2021-07-07T19:13:39Z</time>
      </trkpt>
      <trkpt lat="44.75656" lon="-0.57216">
        <ele>22.25</ele>
        <time>2021-07-07T19:13:40Z</time>
      </trkpt>
      <trkpt lat="44.75656" lon="-0.57216">
        <ele>22.25</ele>
        <time>2021-07-07T19:13:41Z</time>
      </trkpt>
      <trkpt lat="44.75668" lon="-0.57222">
        <ele>22.25</ele>
        <time>2021-07-07T19:13:42Z</time>
      </trkpt>
      <trkpt lat="44.75673" lon="-0.57217">
        <ele>22.25</ele>
        <time>2021-07-07T19:13:43Z</time>
      </trkpt>
      <trkpt lat="44.75678" lon="-0.57211">
        <ele>22.25</ele>
        <time>2021-07-07T19:13:44Z</time>
      </trkpt>
      <trkpt lat="44.75684" lon="-0.57204">
        <ele>21.77</ele>
        <time>2021-07-07T19:13:45Z</time>
      </trkpt>
      <trkpt lat="44.75772" lon="-0.57077">
        <ele>23.69</ele>
        <time>2021-07-07T19:13:57Z</time>
      </trkpt>
      <trkpt lat="44.75839" lon="-0.56973">
        <ele>23.69</ele>
        <time>2021-07-07T19:14:08Z</time>
      </trkpt>
      <trkpt lat="44.75845" lon="-0.56953">
        <ele>23.69</ele>
        <time>2021-07-07T19:14:09Z</time>
      </trkpt>
      <trkpt lat="44.75845" lon="-0.56953">
        <ele>23.69</ele>
        <time>2021-07-07T19:14:10Z</time>
      </trkpt>
      <trkpt lat="44.75847" lon="-0.56942">
        <ele>23.21</ele>
        <time>2021-07-07T19:14:11Z</time>
      </trkpt>
      <trkpt lat="44.75849" lon="-0.5693">
        <ele>23.21</ele>
        <time>2021-07-07T19:14:12Z</time>
      </trkpt>
      <trkpt lat="44.75849" lon="-0.56919">
        <ele>23.21</ele>
        <time>2021-07-07T19:14:13Z</time>
      </trkpt>
      <trkpt lat="44.75848" lon="-0.56906">
        <ele>23.21</ele>
        <time>2021-07-07T19:14:14Z</time>
      </trkpt>
      <trkpt lat="44.75846" lon="-0.56867">
        <ele>21.29</ele>
        <time>2021-07-07T19:14:17Z</time>
      </trkpt>
      <trkpt lat="44.75846" lon="-0.56854">
        <ele>21.29</ele>
        <time>2021-07-07T19:14:18Z</time>
      </trkpt>
      <trkpt lat="44.75848" lon="-0.56841">
        <ele>21.29</ele>
        <time>2021-07-07T19:14:19Z</time>
      </trkpt>
      <trkpt lat="44.75854" lon="-0.56814">
        <ele>20.32</ele>
        <time>2021-07-07T19:14:20Z</time>
      </trkpt>
      <trkpt lat="44.75854" lon="-0.56814">
        <ele>20.32</ele>
        <time>2021-07-07T19:14:21Z</time>
      </trkpt>
      <trkpt lat="44.75862" lon="-0.56791">
        <ele>20.32</ele>
        <time>2021-07-07T19:14:22Z</time>
      </trkpt>
      <trkpt lat="44.75884" lon="-0.56709">
        <ele>19.36</ele>
        <time>2021-07-07T19:14:30Z</time>
      </trkpt>
      <trkpt lat="44.75888" lon="-0.56697">
        <ele>18.88</ele>
        <time>2021-07-07T19:14:31Z</time>
      </trkpt>
      <trkpt lat="44.75892" lon="-0.56687">
        <ele>18.88</ele>
        <time>2021-07-07T19:14:32Z</time>
      </trkpt>
      <trkpt lat="44.75897" lon="-0.56677">
        <ele>18.4</ele>
        <time>2021-07-07T19:14:33Z</time>
      </trkpt>
      <trkpt lat="44.75902" lon="-0.56669">
        <ele>18.4</ele>
        <time>2021-07-07T19:14:34Z</time>
      </trkpt>
      <trkpt lat="44.7594" lon="-0.56615">
        <ele>18.88</ele>
        <time>2021-07-07T19:14:40Z</time>
      </trkpt>
      <trkpt lat="44.75951" lon="-0.56593">
        <ele>18.4</ele>
        <time>2021-07-07T19:14:41Z</time>
      </trkpt>
      <trkpt lat="44.75951" lon="-0.56593">
        <ele>17.92</ele>
        <time>2021-07-07T19:14:42Z</time>
      </trkpt>
      <trkpt lat="44.75954" lon="-0.5658">
        <ele>16.96</ele>
        <time>2021-07-07T19:14:43Z</time>
      </trkpt>
      <trkpt lat="44.75958" lon="-0.56567">
        <ele>16.48</ele>
        <time>2021-07-07T19:14:44Z</time>
      </trkpt>
      <trkpt lat="44.7596" lon="-0.56553">
        <ele>16.48</ele>
        <time>2021-07-07T19:14:45Z</time>
      </trkpt>
      <trkpt lat="44.75962" lon="-0.56537">
        <ele>16.96</ele>
        <time>2021-07-07T19:14:46Z</time>
      </trkpt>
      <trkpt lat="44.75963" lon="-0.56521">
        <ele>16.48</ele>
        <time>2021-07-07T19:14:47Z</time>
      </trkpt>
      <trkpt lat="44.75963" lon="-0.56504">
        <ele>15.52</ele>
        <time>2021-07-07T19:14:48Z</time>
      </trkpt>
      <trkpt lat="44.75964" lon="-0.56422">
        <ele>13.12</ele>
        <time>2021-07-07T19:14:54Z</time>
      </trkpt>
      <trkpt lat="44.75965" lon="-0.56412">
        <ele>13.12</ele>
        <time>2021-07-07T19:14:55Z</time>
      </trkpt>
      <trkpt lat="44.75989" lon="-0.56331">
        <ele>13.12</ele>
        <time>2021-07-07T19:15:05Z</time>
      </trkpt>
      <trkpt lat="44.76026" lon="-0.56269">
        <ele>14.08</ele>
        <time>2021-07-07T19:15:17Z</time>
      </trkpt>
      <trkpt lat="44.76069" lon="-0.56201">
        <ele>14.56</ele>
        <time>2021-07-07T19:15:31Z</time>
      </trkpt>
      <trkpt lat="44.76069" lon="-0.56201">
        <ele>15.52</ele>
        <time>2021-07-07T19:15:52Z</time>
      </trkpt>
      <trkpt lat="44.76085" lon="-0.56175">
        <ele>14.56</ele>
        <time>2021-07-07T19:16:10Z</time>
      </trkpt>
      <trkpt lat="44.76122" lon="-0.56111">
        <ele>14.08</ele>
        <time>2021-07-07T19:16:20Z</time>
      </trkpt>
      <trkpt lat="44.76135" lon="-0.56089">
        <ele>14.56</ele>
        <time>2021-07-07T19:16:30Z</time>
      </trkpt>
      <trkpt lat="44.76138" lon="-0.56084">
        <ele>14.56</ele>
        <time>2021-07-07T19:16:51Z</time>
      </trkpt>
      <trkpt lat="44.76147" lon="-0.56069">
        <ele>14.56</ele>
        <time>2021-07-07T19:17:05Z</time>
      </trkpt>
      <trkpt lat="44.76177" lon="-0.56006">
        <ele>14.08</ele>
        <time>2021-07-07T19:17:15Z</time>
      </trkpt>
      <trkpt lat="44.76189" lon="-0.55978">
        <ele>14.08</ele>
        <time>2021-07-07T19:17:25Z</time>
      </trkpt>
      <trkpt lat="44.76201" lon="-0.55952">
        <ele>13.6</ele>
        <time>2021-07-07T19:18:07Z</time>
      </trkpt>
      <trkpt lat="44.76217" lon="-0.55914">
        <ele>13.6</ele>
        <time>2021-07-07T19:18:18Z</time>
      </trkpt>
      <trkpt lat="44.76224" lon="-0.55896">
        <ele>13.6</ele>
        <time>2021-07-07T19:18:23Z</time>
      </trkpt>
      <trkpt lat="44.76232" lon="-0.55899">
        <ele>13.12</ele>
        <time>2021-07-07T19:18:24Z</time>
      </trkpt>
      <trkpt lat="44.76235" lon="-0.55903">
        <ele>13.12</ele>
        <time>2021-07-07T19:18:25Z</time>
      </trkpt>
      <trkpt lat="44.76291" lon="-0.55956">
        <ele>12.15</ele>
        <time>2021-07-07T19:18:34Z</time>
      </trkpt>
      <trkpt lat="44.76433" lon="-0.56095">
        <ele>12.15</ele>
        <time>2021-07-07T19:18:49Z</time>
      </trkpt>
      <trkpt lat="44.76648" lon="-0.563">
        <ele>19.36</ele>
        <time>2021-07-07T19:19:10Z</time>
      </trkpt>
      <trkpt lat="44.76667" lon="-0.56316">
        <ele>18.88</ele>
        <time>2021-07-07T19:19:15Z</time>
      </trkpt>
      <trkpt lat="44.76719" lon="-0.56343">
        <ele>18.88</ele>
        <time>2021-07-07T19:19:22Z</time>
      </trkpt>
      <trkpt lat="44.76854" lon="-0.56369">
        <ele>18.88</ele>
        <time>2021-07-07T19:19:32Z</time>
      </trkpt>
      <trkpt lat="44.76913" lon="-0.5638">
        <ele>18.4</ele>
        <time>2021-07-07T19:19:39Z</time>
      </trkpt>
      <trkpt lat="44.76926" lon="-0.56382">
        <ele>19.36</ele>
        <time>2021-07-07T19:19:46Z</time>
      </trkpt>
      <trkpt lat="44.76947" lon="-0.56386">
        <ele>18.88</ele>
        <time>2021-07-07T19:20:01Z</time>
      </trkpt>
      <trkpt lat="44.77046" lon="-0.56403">
        <ele>18.4</ele>
        <time>2021-07-07T19:20:12Z</time>
      </trkpt>
      <trkpt lat="44.77144" lon="-0.5641">
        <ele>19.36</ele>
        <time>2021-07-07T19:20:22Z</time>
      </trkpt>
      <trkpt lat="44.77151" lon="-0.56407">
        <ele>19.36</ele>
        <time>2021-07-07T19:20:24Z</time>
      </trkpt>
      <trkpt lat="44.77154" lon="-0.56406">
        <ele>19.36</ele>
        <time>2021-07-07T19:20:25Z</time>
      </trkpt>
      <trkpt lat="44.77164" lon="-0.56417">
        <ele>19.36</ele>
        <time>2021-07-07T19:20:26Z</time>
      </trkpt>
      <trkpt lat="44.7717" lon="-0.56419">
        <ele>18.88</ele>
        <time>2021-07-07T19:20:27Z</time>
      </trkpt>
      <trkpt lat="44.77185" lon="-0.56424">
        <ele>19.36</ele>
        <time>2021-07-07T19:20:28Z</time>
      </trkpt>
      <trkpt lat="44.77185" lon="-0.56424">
        <ele>19.36</ele>
        <time>2021-07-07T19:20:29Z</time>
      </trkpt>
      <trkpt lat="44.77306" lon="-0.56449">
        <ele>16.96</ele>
        <time>2021-07-07T19:20:40Z</time>
      </trkpt>
      <trkpt lat="44.77452" lon="-0.56459">
        <ele>15.04</ele>
        <time>2021-07-07T19:20:54Z</time>
      </trkpt>
      <trkpt lat="44.77464" lon="-0.56456">
        <ele>14.56</ele>
        <time>2021-07-07T19:20:55Z</time>
      </trkpt>
      <trkpt lat="44.77464" lon="-0.56456">
        <ele>14.56</ele>
        <time>2021-07-07T19:20:56Z</time>
      </trkpt>
      <trkpt lat="44.77468" lon="-0.56454">
        <ele>14.08</ele>
        <time>2021-07-07T19:20:57Z</time>
      </trkpt>
      <trkpt lat="44.77473" lon="-0.56449">
        <ele>14.08</ele>
        <time>2021-07-07T19:20:58Z</time>
      </trkpt>
      <trkpt lat="44.77481" lon="-0.56444">
        <ele>13.6</ele>
        <time>2021-07-07T19:20:59Z</time>
      </trkpt>
      <trkpt lat="44.77487" lon="-0.56444">
        <ele>13.6</ele>
        <time>2021-07-07T19:21:00Z</time>
      </trkpt>
      <trkpt lat="44.77493" lon="-0.56444">
        <ele>13.6</ele>
        <time>2021-07-07T19:21:01Z</time>
      </trkpt>
      <trkpt lat="44.77507" lon="-0.56452">
        <ele>13.12</ele>
        <time>2021-07-07T19:21:03Z</time>
      </trkpt>
      <trkpt lat="44.7752" lon="-0.56447">
        <ele>13.12</ele>
        <time>2021-07-07T19:21:05Z</time>
      </trkpt>
      <trkpt lat="44.77528" lon="-0.5645">
        <ele>12.63</ele>
        <time>2021-07-07T19:21:06Z</time>
      </trkpt>
      <trkpt lat="44.77536" lon="-0.56453">
        <ele>12.63</ele>
        <time>2021-07-07T19:21:07Z</time>
      </trkpt>
      <trkpt lat="44.77551" lon="-0.56459">
        <ele>12.15</ele>
        <time>2021-07-07T19:21:09Z</time>
      </trkpt>
      <trkpt lat="44.77559" lon="-0.56462">
        <ele>12.15</ele>
        <time>2021-07-07T19:21:10Z</time>
      </trkpt>
      <trkpt lat="44.77687" lon="-0.56511">
        <ele>8.31</ele>
        <time>2021-07-07T19:21:24Z</time>
      </trkpt>
      <trkpt lat="44.77702" lon="-0.5652">
        <ele>8.31</ele>
        <time>2021-07-07T19:21:26Z</time>
      </trkpt>
      <trkpt lat="44.77709" lon="-0.56525">
        <ele>7.83</ele>
        <time>2021-07-07T19:21:27Z</time>
      </trkpt>
      <trkpt lat="44.77712" lon="-0.56531">
        <ele>7.83</ele>
        <time>2021-07-07T19:21:28Z</time>
      </trkpt>
      <trkpt lat="44.77715" lon="-0.56538">
        <ele>7.83</ele>
        <time>2021-07-07T19:21:29Z</time>
      </trkpt>
      <trkpt lat="44.77718" lon="-0.56544">
        <ele>7.35</ele>
        <time>2021-07-07T19:21:30Z</time>
      </trkpt>
      <trkpt lat="44.77718" lon="-0.56545">
        <ele>7.35</ele>
        <time>2021-07-07T19:21:31Z</time>
      </trkpt>
      <trkpt lat="44.77718" lon="-0.56546">
        <ele>6.39</ele>
        <time>2021-07-07T19:21:39Z</time>
      </trkpt>
      <trkpt lat="44.77716" lon="-0.56589">
        <ele>7.35</ele>
        <time>2021-07-07T19:21:53Z</time>
      </trkpt>
      <trkpt lat="44.77714" lon="-0.56607">
        <ele>7.83</ele>
        <time>2021-07-07T19:22:10Z</time>
      </trkpt>
      <trkpt lat="44.77713" lon="-0.56613">
        <ele>8.31</ele>
        <time>2021-07-07T19:22:24Z</time>
      </trkpt>
      <trkpt lat="44.77713" lon="-0.56631">
        <ele>9.27</ele>
        <time>2021-07-07T19:22:45Z</time>
      </trkpt>
      <trkpt lat="44.77713" lon="-0.5664">
        <ele>9.27</ele>
        <time>2021-07-07T19:23:00Z</time>
      </trkpt>
      <trkpt lat="44.77721" lon="-0.56669">
        <ele>9.75</ele>
        <time>2021-07-07T19:23:14Z</time>
      </trkpt>
      <trkpt lat="44.77731" lon="-0.56713">
        <ele>9.27</ele>
        <time>2021-07-07T19:23:31Z</time>
      </trkpt>
      <trkpt lat="44.77765" lon="-0.56763">
        <ele>8.31</ele>
        <time>2021-07-07T19:23:43Z</time>
      </trkpt>
      <trkpt lat="44.77775" lon="-0.56767">
        <ele>8.79</ele>
        <time>2021-07-07T19:23:52Z</time>
      </trkpt>
      <trkpt lat="44.77795" lon="-0.56769">
        <ele>8.79</ele>
        <time>2021-07-07T19:24:01Z</time>
      </trkpt>
      <trkpt lat="44.77799" lon="-0.56765">
        <ele>9.27</ele>
        <time>2021-07-07T19:24:15Z</time>
      </trkpt>
      <trkpt lat="44.77818" lon="-0.56745">
        <ele>8.79</ele>
        <time>2021-07-07T19:24:27Z</time>
      </trkpt>
      <trkpt lat="44.77826" lon="-0.56703">
        <ele>8.79</ele>
        <time>2021-07-07T19:24:38Z</time>
      </trkpt>
      <trkpt lat="44.77822" lon="-0.5663">
        <ele>9.75</ele>
        <time>2021-07-07T19:24:51Z</time>
      </trkpt>
      <trkpt lat="44.77821" lon="-0.56624">
        <ele>9.75</ele>
        <time>2021-07-07T19:24:52Z</time>
      </trkpt>
      <trkpt lat="44.77816" lon="-0.566">
        <ele>9.75</ele>
        <time>2021-07-07T19:25:03Z</time>
      </trkpt>
      <trkpt lat="44.7781" lon="-0.56564">
        <ele>7.83</ele>
        <time>2021-07-07T19:25:19Z</time>
      </trkpt>
      <trkpt lat="44.77807" lon="-0.5655">
        <ele>7.35</ele>
        <time>2021-07-07T19:25:32Z</time>
      </trkpt>
      <trkpt lat="44.77804" lon="-0.56529">
        <ele>7.35</ele>
        <time>2021-07-07T19:25:47Z</time>
      </trkpt>
      <trkpt lat="44.77799" lon="-0.565">
        <ele>7.35</ele>
        <time>2021-07-07T19:26:03Z</time>
      </trkpt>
      <trkpt lat="44.77799" lon="-0.56498">
        <ele>7.35</ele>
        <time>2021-07-07T19:26:20Z</time>
      </trkpt>
      <trkpt lat="44.77799" lon="-0.56498">
        <ele>7.35</ele>
        <time>2021-07-07T19:26:41Z</time>
      </trkpt>
      <trkpt lat="44.77788" lon="-0.56434">
        <ele>7.35</ele>
        <time>2021-07-07T19:26:55Z</time>
      </trkpt>
      <trkpt lat="44.77779" lon="-0.5638">
        <ele>7.35</ele>
        <time>2021-07-07T19:27:10Z</time>
      </trkpt>
      <trkpt lat="44.77771" lon="-0.56311">
        <ele>7.35</ele>
        <time>2021-07-07T19:27:23Z</time>
      </trkpt>
      <trkpt lat="44.77761" lon="-0.56225">
        <ele>7.35</ele>
        <time>2021-07-07T19:27:36Z</time>
      </trkpt>
      <trkpt lat="44.77757" lon="-0.56127">
        <ele>6.87</ele>
        <time>2021-07-07T19:27:50Z</time>
      </trkpt>
      <trkpt lat="44.77758" lon="-0.55987">
        <ele>6.39</ele>
        <time>2021-07-07T19:28:05Z</time>
      </trkpt>
      <trkpt lat="44.77766" lon="-0.55879">
        <ele>6.87</ele>
        <time>2021-07-07T19:28:14Z</time>
      </trkpt>
      <trkpt lat="44.77793" lon="-0.55706">
        <ele>6.87</ele>
        <time>2021-07-07T19:28:23Z</time>
      </trkpt>
      <trkpt lat="44.77841" lon="-0.55476">
        <ele>8.31</ele>
        <time>2021-07-07T19:28:36Z</time>
      </trkpt>
      <trkpt lat="44.77867" lon="-0.5535">
        <ele>8.31</ele>
        <time>2021-07-07T19:28:47Z</time>
      </trkpt>
      <trkpt lat="44.77891" lon="-0.55245">
        <ele>8.31</ele>
        <time>2021-07-07T19:28:55Z</time>
      </trkpt>
      <trkpt lat="44.77946" lon="-0.54994">
        <ele>9.27</ele>
        <time>2021-07-07T19:29:11Z</time>
      </trkpt>
      <trkpt lat="44.77995" lon="-0.54768">
        <ele>7.35</ele>
        <time>2021-07-07T19:29:25Z</time>
      </trkpt>
      <trkpt lat="44.7807" lon="-0.54544">
        <ele>4.94</ele>
        <time>2021-07-07T19:29:36Z</time>
      </trkpt>
      <trkpt lat="44.78195" lon="-0.54351">
        <ele>2.54</ele>
        <time>2021-07-07T19:29:46Z</time>
      </trkpt>
      <trkpt lat="44.78321" lon="-0.54243">
        <ele>-1.3</ele>
        <time>2021-07-07T19:29:55Z</time>
      </trkpt>
      <trkpt lat="44.78481" lon="-0.54177">
        <ele>-1.3</ele>
        <time>2021-07-07T19:30:04Z</time>
      </trkpt>
      <trkpt lat="44.78645" lon="-0.54138">
        <ele>-0.82</ele>
        <time>2021-07-07T19:30:13Z</time>
      </trkpt>
      <trkpt lat="44.78859" lon="-0.54088">
        <ele>-0.82</ele>
        <time>2021-07-07T19:30:28Z</time>
      </trkpt>
      <trkpt lat="44.79013" lon="-0.54053">
        <ele>-0.34</ele>
        <time>2021-07-07T19:30:41Z</time>
      </trkpt>
      <trkpt lat="44.79135" lon="-0.54025">
        <ele>-1.3</ele>
        <time>2021-07-07T19:30:54Z</time>
      </trkpt>
      <trkpt lat="44.79273" lon="-0.53989">
        <ele>-2.27</ele>
        <time>2021-07-07T19:31:09Z</time>
      </trkpt>
      <trkpt lat="44.79391" lon="-0.53949">
        <ele>-4.19</ele>
        <time>2021-07-07T19:31:22Z</time>
      </trkpt>
      <trkpt lat="44.79484" lon="-0.53906">
        <ele>-4.67</ele>
        <time>2021-07-07T19:31:35Z</time>
      </trkpt>
      <trkpt lat="44.79593" lon="-0.53851">
        <ele>-3.23</ele>
        <time>2021-07-07T19:31:51Z</time>
      </trkpt>
      <trkpt lat="44.79701" lon="-0.53786">
        <ele>-4.67</ele>
        <time>2021-07-07T19:32:02Z</time>
      </trkpt>
      <trkpt lat="44.79846" lon="-0.53675">
        <ele>-5.63</ele>
        <time>2021-07-07T19:32:16Z</time>
      </trkpt>
      <trkpt lat="44.79957" lon="-0.5358">
        <ele>-5.15</ele>
        <time>2021-07-07T19:32:31Z</time>
      </trkpt>
      <trkpt lat="44.80005" lon="-0.53539">
        <ele>-5.15</ele>
        <time>2021-07-07T19:32:43Z</time>
      </trkpt>
      <trkpt lat="44.80034" lon="-0.53513">
        <ele>-4.67</ele>
        <time>2021-07-07T19:32:58Z</time>
      </trkpt>
      <trkpt lat="44.80067" lon="-0.53483">
        <ele>-4.67</ele>
        <time>2021-07-07T19:33:12Z</time>
      </trkpt>
      <trkpt lat="44.80111" lon="-0.53444">
        <ele>-5.15</ele>
        <time>2021-07-07T19:33:25Z</time>
      </trkpt>
      <trkpt lat="44.80175" lon="-0.53391">
        <ele>-5.63</ele>
        <time>2021-07-07T19:33:38Z</time>
      </trkpt>
      <trkpt lat="44.80283" lon="-0.53307">
        <ele>-6.11</ele>
        <time>2021-07-07T19:33:52Z</time>
      </trkpt>
      <trkpt lat="44.80401" lon="-0.53228">
        <ele>-6.11</ele>
        <time>2021-07-07T19:34:06Z</time>
      </trkpt>
      <trkpt lat="44.80519" lon="-0.53097">
        <ele>-2.27</ele>
        <time>2021-07-07T19:34:18Z</time>
      </trkpt>
      <trkpt lat="44.8064" lon="-0.52919">
        <ele>1.58</ele>
        <time>2021-07-07T19:34:31Z</time>
      </trkpt>
      <trkpt lat="44.80763" lon="-0.52734">
        <ele>2.06</ele>
        <time>2021-07-07T19:34:43Z</time>
      </trkpt>
      <trkpt lat="44.80891" lon="-0.52541">
        <ele>1.58</ele>
        <time>2021-07-07T19:34:57Z</time>
      </trkpt>
      <trkpt lat="44.8096" lon="-0.52437">
        <ele>-0.82</ele>
        <time>2021-07-07T19:35:09Z</time>
      </trkpt>
      <trkpt lat="44.81007" lon="-0.5237">
        <ele>-2.27</ele>
        <time>2021-07-07T19:35:21Z</time>
      </trkpt>
      <trkpt lat="44.81041" lon="-0.52321">
        <ele>-3.23</ele>
        <time>2021-07-07T19:35:33Z</time>
      </trkpt>
      <trkpt lat="44.81046" lon="-0.52313">
        <ele>-3.23</ele>
        <time>2021-07-07T19:35:47Z</time>
      </trkpt>
      <trkpt lat="44.81094" lon="-0.52253">
        <ele>-3.71</ele>
        <time>2021-07-07T19:36:02Z</time>
      </trkpt>
      <trkpt lat="44.81149" lon="-0.52197">
        <ele>-4.19</ele>
        <time>2021-07-07T19:36:11Z</time>
      </trkpt>
      <trkpt lat="44.81166" lon="-0.52181">
        <ele>-6.11</ele>
        <time>2021-07-07T19:36:13Z</time>
      </trkpt>
      <trkpt lat="44.81174" lon="-0.52173">
        <ele>-4.67</ele>
        <time>2021-07-07T19:36:14Z</time>
      </trkpt>
      <trkpt lat="44.81185" lon="-0.52165">
        <ele>-5.15</ele>
        <time>2021-07-07T19:36:19Z</time>
      </trkpt>
      <trkpt lat="44.8139" lon="-0.52065">
        <ele>-5.15</ele>
        <time>2021-07-07T19:36:29Z</time>
      </trkpt>
      <trkpt lat="44.81552" lon="-0.5206">
        <ele>-6.11</ele>
        <time>2021-07-07T19:36:40Z</time>
      </trkpt>
      <trkpt lat="44.81653" lon="-0.52074">
        <ele>-5.15</ele>
        <time>2021-07-07T19:36:50Z</time>
      </trkpt>
      <trkpt lat="44.81693" lon="-0.5208">
        <ele>-6.11</ele>
        <time>2021-07-07T19:36:58Z</time>
      </trkpt>
      <trkpt lat="44.81712" lon="-0.52078">
        <ele>-5.63</ele>
        <time>2021-07-07T19:37:28Z</time>
      </trkpt>
      <trkpt lat="44.81759" lon="-0.52075">
        <ele>-5.15</ele>
        <time>2021-07-07T19:37:43Z</time>
      </trkpt>
      <trkpt lat="44.81848" lon="-0.52049">
        <ele>-4.67</ele>
        <time>2021-07-07T19:37:58Z</time>
      </trkpt>
      <trkpt lat="44.81963" lon="-0.51974">
        <ele>-4.67</ele>
        <time>2021-07-07T19:38:13Z</time>
      </trkpt>
      <trkpt lat="44.82038" lon="-0.51892">
        <ele>-4.67</ele>
        <time>2021-07-07T19:38:28Z</time>
      </trkpt>
      <trkpt lat="44.82085" lon="-0.51823">
        <ele>-4.67</ele>
        <time>2021-07-07T19:38:41Z</time>
      </trkpt>
      <trkpt lat="44.82125" lon="-0.5174">
        <ele>-4.67</ele>
        <time>2021-07-07T19:38:51Z</time>
      </trkpt>
      <trkpt lat="44.82157" lon="-0.51652">
        <ele>-3.23</ele>
        <time>2021-07-07T19:39:02Z</time>
      </trkpt>
      <trkpt lat="44.82211" lon="-0.51468">
        <ele>-0.82</ele>
        <time>2021-07-07T19:39:15Z</time>
      </trkpt>
      <trkpt lat="44.82281" lon="-0.51318">
        <ele>1.58</ele>
        <time>2021-07-07T19:39:26Z</time>
      </trkpt>
      <trkpt lat="44.82349" lon="-0.51205">
        <ele>2.54</ele>
        <time>2021-07-07T19:39:39Z</time>
      </trkpt>
      <trkpt lat="44.82424" lon="-0.51115">
        <ele>3.02</ele>
        <time>2021-07-07T19:39:54Z</time>
      </trkpt>
      <trkpt lat="44.82471" lon="-0.51068">
        <ele>3.02</ele>
        <time>2021-07-07T19:40:08Z</time>
      </trkpt>
      <trkpt lat="44.8251" lon="-0.5103">
        <ele>3.5</ele>
        <time>2021-07-07T19:40:19Z</time>
      </trkpt>
      <trkpt lat="44.82582" lon="-0.50945">
        <ele>5.42</ele>
        <time>2021-07-07T19:40:29Z</time>
      </trkpt>
      <trkpt lat="44.82682" lon="-0.50791">
        <ele>5.42</ele>
        <time>2021-07-07T19:40:41Z</time>
      </trkpt>
      <trkpt lat="44.8276" lon="-0.50615">
        <ele>8.79</ele>
        <time>2021-07-07T19:40:53Z</time>
      </trkpt>
      <trkpt lat="44.82781" lon="-0.5055">
        <ele>10.23</ele>
        <time>2021-07-07T19:41:01Z</time>
      </trkpt>
      <trkpt lat="44.82796" lon="-0.50505">
        <ele>11.67</ele>
        <time>2021-07-07T19:41:12Z</time>
      </trkpt>
      <trkpt lat="44.82823" lon="-0.50431">
        <ele>13.6</ele>
        <time>2021-07-07T19:41:24Z</time>
      </trkpt>
      <trkpt lat="44.82848" lon="-0.5038">
        <ele>15.52</ele>
        <time>2021-07-07T19:41:36Z</time>
      </trkpt>
      <trkpt lat="44.82883" lon="-0.50319">
        <ele>18.4</ele>
        <time>2021-07-07T19:41:51Z</time>
      </trkpt>
      <trkpt lat="44.8292" lon="-0.50266">
        <ele>21.29</ele>
        <time>2021-07-07T19:42:07Z</time>
      </trkpt>
      <trkpt lat="44.82948" lon="-0.50235">
        <ele>23.21</ele>
        <time>2021-07-07T19:42:20Z</time>
      </trkpt>
      <trkpt lat="44.82988" lon="-0.50194">
        <ele>25.13</ele>
        <time>2021-07-07T19:42:34Z</time>
      </trkpt>
      <trkpt lat="44.8305" lon="-0.50147">
        <ele>26.09</ele>
        <time>2021-07-07T19:42:48Z</time>
      </trkpt>
      <trkpt lat="44.83113" lon="-0.50112">
        <ele>28.98</ele>
        <time>2021-07-07T19:42:58Z</time>
      </trkpt>
      <trkpt lat="44.83233" lon="-0.50056">
        <ele>32.82</ele>
        <time>2021-07-07T19:43:10Z</time>
      </trkpt>
      <trkpt lat="44.83326" lon="-0.50018">
        <ele>35.71</ele>
        <time>2021-07-07T19:43:20Z</time>
      </trkpt>
      <trkpt lat="44.83381" lon="-0.5">
        <ele>39.07</ele>
        <time>2021-07-07T19:43:30Z</time>
      </trkpt>
      <trkpt lat="44.83412" lon="-0.49993">
        <ele>42.44</ele>
        <time>2021-07-07T19:43:42Z</time>
      </trkpt>
      <trkpt lat="44.8347" lon="-0.49987">
        <ele>45.32</ele>
        <time>2021-07-07T19:44:03Z</time>
      </trkpt>
      <trkpt lat="44.83538" lon="-0.49988">
        <ele>48.68</ele>
        <time>2021-07-07T19:44:15Z</time>
      </trkpt>
      <trkpt lat="44.83653" lon="-0.50016">
        <ele>56.37</ele>
        <time>2021-07-07T19:44:31Z</time>
      </trkpt>
      <trkpt lat="44.83677" lon="-0.50025">
        <ele>57.34</ele>
        <time>2021-07-07T19:44:34Z</time>
      </trkpt>
      <trkpt lat="44.8379" lon="-0.50081">
        <ele>62.14</ele>
        <time>2021-07-07T19:44:45Z</time>
      </trkpt>
      <trkpt lat="44.8396" lon="-0.50142">
        <ele>71.27</ele>
        <time>2021-07-07T19:44:58Z</time>
      </trkpt>
      <trkpt lat="44.84131" lon="-0.50154">
        <ele>72.24</ele>
        <time>2021-07-07T19:45:10Z</time>
      </trkpt>
      <trkpt lat="44.84237" lon="-0.50149">
        <ele>69.83</ele>
        <time>2021-07-07T19:45:20Z</time>
      </trkpt>
      <trkpt lat="44.84272" lon="-0.50147">
        <ele>68.87</ele>
        <time>2021-07-07T19:45:28Z</time>
      </trkpt>
      <trkpt lat="44.84312" lon="-0.50148">
        <ele>68.39</ele>
        <time>2021-07-07T19:45:44Z</time>
      </trkpt>
      <trkpt lat="44.84316" lon="-0.50148">
        <ele>68.39</ele>
        <time>2021-07-07T19:45:45Z</time>
      </trkpt>
      <trkpt lat="44.84359" lon="-0.50152">
        <ele>64.55</ele>
        <time>2021-07-07T19:45:56Z</time>
      </trkpt>
      <trkpt lat="44.84382" lon="-0.50156">
        <ele>64.55</ele>
        <time>2021-07-07T19:46:13Z</time>
      </trkpt>
      <trkpt lat="44.84408" lon="-0.5016">
        <ele>63.58</ele>
        <time>2021-07-07T19:46:30Z</time>
      </trkpt>
      <trkpt lat="44.84428" lon="-0.50163">
        <ele>63.1</ele>
        <time>2021-07-07T19:46:51Z</time>
      </trkpt>
      <trkpt lat="44.84487" lon="-0.50183">
        <ele>62.62</ele>
        <time>2021-07-07T19:47:04Z</time>
      </trkpt>
      <trkpt lat="44.84544" lon="-0.50202">
        <ele>63.1</ele>
        <time>2021-07-07T19:47:18Z</time>
      </trkpt>
      <trkpt lat="44.84597" lon="-0.50223">
        <ele>61.18</ele>
        <time>2021-07-07T19:47:28Z</time>
      </trkpt>
      <trkpt lat="44.84604" lon="-0.50226">
        <ele>61.66</ele>
        <time>2021-07-07T19:47:43Z</time>
      </trkpt>
      <trkpt lat="44.84628" lon="-0.50235">
        <ele>61.66</ele>
        <time>2021-07-07T19:47:52Z</time>
      </trkpt>
      <trkpt lat="44.84699" lon="-0.50263">
        <ele>60.7</ele>
        <time>2021-07-07T19:48:07Z</time>
      </trkpt>
      <trkpt lat="44.84815" lon="-0.50309">
        <ele>59.26</ele>
        <time>2021-07-07T19:48:19Z</time>
      </trkpt>
      <trkpt lat="44.8492" lon="-0.50353">
        <ele>49.16</ele>
        <time>2021-07-07T19:48:28Z</time>
      </trkpt>
      <trkpt lat="44.84962" lon="-0.5037">
        <ele>46.28</ele>
        <time>2021-07-07T19:48:36Z</time>
      </trkpt>
      <trkpt lat="44.84962" lon="-0.5037">
        <ele>47.72</ele>
        <time>2021-07-07T19:48:47Z</time>
      </trkpt>
      <trkpt lat="44.84984" lon="-0.50379">
        <ele>47.24</ele>
        <time>2021-07-07T19:48:59Z</time>
      </trkpt>
      <trkpt lat="44.85064" lon="-0.50412">
        <ele>44.84</ele>
        <time>2021-07-07T19:49:12Z</time>
      </trkpt>
      <trkpt lat="44.85119" lon="-0.50435">
        <ele>44.84</ele>
        <time>2021-07-07T19:49:20Z</time>
      </trkpt>
      <trkpt lat="44.85261" lon="-0.50487">
        <ele>48.2</ele>
        <time>2021-07-07T19:49:31Z</time>
      </trkpt>
      <trkpt lat="44.85467" lon="-0.50519">
        <ele>49.65</ele>
        <time>2021-07-07T19:49:44Z</time>
      </trkpt>
      <trkpt lat="44.85661" lon="-0.50498">
        <ele>50.13</ele>
        <time>2021-07-07T19:49:56Z</time>
      </trkpt>
      <trkpt lat="44.85896" lon="-0.50442">
        <ele>48.2</ele>
        <time>2021-07-07T19:50:11Z</time>
      </trkpt>
      <trkpt lat="44.85996" lon="-0.5042">
        <ele>45.8</ele>
        <time>2021-07-07T19:50:21Z</time>
      </trkpt>
      <trkpt lat="44.86096" lon="-0.50401">
        <ele>45.8</ele>
        <time>2021-07-07T19:50:34Z</time>
      </trkpt>
      <trkpt lat="44.86164" lon="-0.50393">
        <ele>47.72</ele>
        <time>2021-07-07T19:50:51Z</time>
      </trkpt>
      <trkpt lat="44.86187" lon="-0.50391">
        <ele>49.16</ele>
        <time>2021-07-07T19:51:05Z</time>
      </trkpt>
      <trkpt lat="44.86221" lon="-0.50387">
        <ele>50.61</ele>
        <time>2021-07-07T19:51:19Z</time>
      </trkpt>
      <trkpt lat="44.86282" lon="-0.50382">
        <ele>49.65</ele>
        <time>2021-07-07T19:51:34Z</time>
      </trkpt>
      <trkpt lat="44.86325" lon="-0.50381">
        <ele>50.13</ele>
        <time>2021-07-07T19:51:47Z</time>
      </trkpt>
      <trkpt lat="44.86346" lon="-0.5038">
        <ele>49.16</ele>
        <time>2021-07-07T19:52:02Z</time>
      </trkpt>
      <trkpt lat="44.86445" lon="-0.50381">
        <ele>47.24</ele>
        <time>2021-07-07T19:52:18Z</time>
      </trkpt>
      <trkpt lat="44.86498" lon="-0.50384">
        <ele>47.24</ele>
        <time>2021-07-07T19:52:29Z</time>
      </trkpt>
      <trkpt lat="44.86574" lon="-0.50391">
        <ele>45.8</ele>
        <time>2021-07-07T19:52:38Z</time>
      </trkpt>
      <trkpt lat="44.86774" lon="-0.50429">
        <ele>38.11</ele>
        <time>2021-07-07T19:52:55Z</time>
      </trkpt>
      <trkpt lat="44.86908" lon="-0.50465">
        <ele>36.19</ele>
        <time>2021-07-07T19:53:08Z</time>
      </trkpt>
      <trkpt lat="44.87001" lon="-0.50498">
        <ele>32.34</ele>
        <time>2021-07-07T19:53:20Z</time>
      </trkpt>
      <trkpt lat="44.87142" lon="-0.50557">
        <ele>31.38</ele>
        <time>2021-07-07T19:53:35Z</time>
      </trkpt>
      <trkpt lat="44.87187" lon="-0.50579">
        <ele>31.38</ele>
        <time>2021-07-07T19:53:43Z</time>
      </trkpt>
      <trkpt lat="44.8723" lon="-0.50601">
        <ele>30.9</ele>
        <time>2021-07-07T19:53:55Z</time>
      </trkpt>
      <trkpt lat="44.87303" lon="-0.5064">
        <ele>30.42</ele>
        <time>2021-07-07T19:54:06Z</time>
      </trkpt>
      <trkpt lat="44.8742" lon="-0.50704">
        <ele>30.9</ele>
        <time>2021-07-07T19:54:17Z</time>
      </trkpt>
      <trkpt lat="44.87548" lon="-0.50774">
        <ele>30.42</ele>
        <time>2021-07-07T19:54:28Z</time>
      </trkpt>
      <trkpt lat="44.87734" lon="-0.50875">
        <ele>30.42</ele>
        <time>2021-07-07T19:54:42Z</time>
      </trkpt>
      <trkpt lat="44.87925" lon="-0.50978">
        <ele>28.02</ele>
        <time>2021-07-07T19:54:56Z</time>
      </trkpt>
      <trkpt lat="44.88022" lon="-0.51033">
        <ele>30.42</ele>
        <time>2021-07-07T19:55:05Z</time>
      </trkpt>
      <trkpt lat="44.88065" lon="-0.51056">
        <ele>30.9</ele>
        <time>2021-07-07T19:55:12Z</time>
      </trkpt>
      <trkpt lat="44.88069" lon="-0.51058">
        <ele>31.86</ele>
        <time>2021-07-07T19:55:26Z</time>
      </trkpt>
      <trkpt lat="44.88097" lon="-0.51074">
        <ele>31.86</ele>
        <time>2021-07-07T19:55:38Z</time>
      </trkpt>
      <trkpt lat="44.88121" lon="-0.51086">
        <ele>31.86</ele>
        <time>2021-07-07T19:55:52Z</time>
      </trkpt>
      <trkpt lat="44.88139" lon="-0.51093">
        <ele>31.38</ele>
        <time>2021-07-07T19:56:07Z</time>
      </trkpt>
      <trkpt lat="44.88159" lon="-0.51103">
        <ele>31.86</ele>
        <time>2021-07-07T19:56:17Z</time>
      </trkpt>
      <trkpt lat="44.88169" lon="-0.51107">
        <ele>32.34</ele>
        <time>2021-07-07T19:56:28Z</time>
      </trkpt>
      <trkpt lat="44.88186" lon="-0.51115">
        <ele>32.82</ele>
        <time>2021-07-07T19:56:39Z</time>
      </trkpt>
      <trkpt lat="44.88187" lon="-0.51115">
        <ele>32.82</ele>
        <time>2021-07-07T19:56:57Z</time>
      </trkpt>
      <trkpt lat="44.8821" lon="-0.51122">
        <ele>33.3</ele>
        <time>2021-07-07T19:57:12Z</time>
      </trkpt>
      <trkpt lat="44.88226" lon="-0.51127">
        <ele>33.3</ele>
        <time>2021-07-07T19:57:29Z</time>
      </trkpt>
      <trkpt lat="44.88234" lon="-0.51129">
        <ele>33.78</ele>
        <time>2021-07-07T19:57:44Z</time>
      </trkpt>
      <trkpt lat="44.88252" lon="-0.51134">
        <ele>34.26</ele>
        <time>2021-07-07T19:57:57Z</time>
      </trkpt>
      <trkpt lat="44.88287" lon="-0.51143">
        <ele>34.74</ele>
        <time>2021-07-07T19:58:10Z</time>
      </trkpt>
      <trkpt lat="44.88306" lon="-0.51147">
        <ele>35.23</ele>
        <time>2021-07-07T19:58:32Z</time>
      </trkpt>
      <trkpt lat="44.88332" lon="-0.51151">
        <ele>35.23</ele>
        <time>2021-07-07T19:58:44Z</time>
      </trkpt>
      <trkpt lat="44.88367" lon="-0.51151">
        <ele>34.74</ele>
        <time>2021-07-07T19:59:00Z</time>
      </trkpt>
      <trkpt lat="44.88391" lon="-0.51145">
        <ele>36.67</ele>
        <time>2021-07-07T19:59:13Z</time>
      </trkpt>
      <trkpt lat="44.88394" lon="-0.51144">
        <ele>38.11</ele>
        <time>2021-07-07T19:59:30Z</time>
      </trkpt>
      <trkpt lat="44.88414" lon="-0.51133">
        <ele>37.63</ele>
        <time>2021-07-07T19:59:42Z</time>
      </trkpt>
      <trkpt lat="44.88438" lon="-0.5111">
        <ele>35.71</ele>
        <time>2021-07-07T20:00:01Z</time>
      </trkpt>
      <trkpt lat="44.88451" lon="-0.51088">
        <ele>35.23</ele>
        <time>2021-07-07T20:00:22Z</time>
      </trkpt>
      <trkpt lat="44.88472" lon="-0.51039">
        <ele>31.86</ele>
        <time>2021-07-07T20:00:45Z</time>
      </trkpt>
      <trkpt lat="44.88478" lon="-0.51017">
        <ele>28.5</ele>
        <time>2021-07-07T20:01:01Z</time>
      </trkpt>
      <trkpt lat="44.88484" lon="-0.50998">
        <ele>28.02</ele>
        <time>2021-07-07T20:01:21Z</time>
      </trkpt>
      <trkpt lat="44.88493" lon="-0.50966">
        <ele>26.09</ele>
        <time>2021-07-07T20:01:43Z</time>
      </trkpt>
      <trkpt lat="44.88503" lon="-0.50932">
        <ele>25.13</ele>
        <time>2021-07-07T20:02:01Z</time>
      </trkpt>
      <trkpt lat="44.88517" lon="-0.50883">
        <ele>24.17</ele>
        <time>2021-07-07T20:02:18Z</time>
      </trkpt>
      <trkpt lat="44.88536" lon="-0.5084">
        <ele>22.73</ele>
        <time>2021-07-07T20:02:35Z</time>
      </trkpt>
      <trkpt lat="44.8855" lon="-0.50812">
        <ele>22.25</ele>
        <time>2021-07-07T20:02:52Z</time>
      </trkpt>
      <trkpt lat="44.8857" lon="-0.50772">
        <ele>23.21</ele>
        <time>2021-07-07T20:03:11Z</time>
      </trkpt>
      <trkpt lat="44.88589" lon="-0.50736">
        <ele>23.21</ele>
        <time>2021-07-07T20:03:27Z</time>
      </trkpt>
      <trkpt lat="44.88615" lon="-0.50699">
        <ele>22.73</ele>
        <time>2021-07-07T20:03:45Z</time>
      </trkpt>
      <trkpt lat="44.8864" lon="-0.50665">
        <ele>22.25</ele>
        <time>2021-07-07T20:04:02Z</time>
      </trkpt>
      <trkpt lat="44.88672" lon="-0.50625">
        <ele>23.69</ele>
        <time>2021-07-07T20:04:15Z</time>
      </trkpt>
      <trkpt lat="44.88737" lon="-0.50565">
        <ele>22.25</ele>
        <time>2021-07-07T20:04:25Z</time>
      </trkpt>
      <trkpt lat="44.88834" lon="-0.50472">
        <ele>20.81</ele>
        <time>2021-07-07T20:04:41Z</time>
      </trkpt>
      <trkpt lat="44.88929" lon="-0.50382">
        <ele>19.36</ele>
        <time>2021-07-07T20:04:54Z</time>
      </trkpt>
      <trkpt lat="44.89073" lon="-0.50232">
        <ele>18.4</ele>
        <time>2021-07-07T20:05:08Z</time>
      </trkpt>
      <trkpt lat="44.89199" lon="-0.50088">
        <ele>16</ele>
        <time>2021-07-07T20:05:20Z</time>
      </trkpt>
      <trkpt lat="44.89264" lon="-0.50013">
        <ele>16.48</ele>
        <time>2021-07-07T20:05:31Z</time>
      </trkpt>
      <trkpt lat="44.8928" lon="-0.49995">
        <ele>16.48</ele>
        <time>2021-07-07T20:05:40Z</time>
      </trkpt>
      <trkpt lat="44.89352" lon="-0.49914">
        <ele>16</ele>
        <time>2021-07-07T20:05:52Z</time>
      </trkpt>
      <trkpt lat="44.89435" lon="-0.49817">
        <ele>16</ele>
        <time>2021-07-07T20:06:03Z</time>
      </trkpt>
      <trkpt lat="44.89461" lon="-0.49791">
        <ele>17.44</ele>
        <time>2021-07-07T20:06:12Z</time>
      </trkpt>
      <trkpt lat="44.89483" lon="-0.49769">
        <ele>18.4</ele>
        <time>2021-07-07T20:06:23Z</time>
      </trkpt>
      <trkpt lat="44.89523" lon="-0.49728">
        <ele>18.88</ele>
        <time>2021-07-07T20:06:33Z</time>
      </trkpt>
      <trkpt lat="44.89613" lon="-0.49647">
        <ele>17.92</ele>
        <time>2021-07-07T20:06:44Z</time>
      </trkpt>
      <trkpt lat="44.89713" lon="-0.49575">
        <ele>17.92</ele>
        <time>2021-07-07T20:06:54Z</time>
      </trkpt>
      <trkpt lat="44.89808" lon="-0.49523">
        <ele>16</ele>
        <time>2021-07-07T20:07:04Z</time>
      </trkpt>
      <trkpt lat="44.89977" lon="-0.4945">
        <ele>17.44</ele>
        <time>2021-07-07T20:07:16Z</time>
      </trkpt>
      <trkpt lat="44.90263" lon="-0.49336">
        <ele>11.67</ele>
        <time>2021-07-07T20:07:32Z</time>
      </trkpt>
      <trkpt lat="44.9057" lon="-0.49205">
        <ele>8.31</ele>
        <time>2021-07-07T20:07:49Z</time>
      </trkpt>
      <trkpt lat="44.90777" lon="-0.49081">
        <ele>7.35</ele>
        <time>2021-07-07T20:07:59Z</time>
      </trkpt>
      <trkpt lat="44.90949" lon="-0.48897">
        <ele>6.39</ele>
        <time>2021-07-07T20:08:08Z</time>
      </trkpt>
      <trkpt lat="44.91087" lon="-0.48656">
        <ele>13.6</ele>
        <time>2021-07-07T20:08:17Z</time>
      </trkpt>
      <trkpt lat="44.9143" lon="-0.48005">
        <ele>15.04</ele>
        <time>2021-07-07T20:08:40Z</time>
      </trkpt>
      <trkpt lat="44.91595" lon="-0.47813">
        <ele>9.75</ele>
        <time>2021-07-07T20:08:48Z</time>
      </trkpt>
      <trkpt lat="44.91785" lon="-0.47682">
        <ele>12.63</ele>
        <time>2021-07-07T20:08:56Z</time>
      </trkpt>
      <trkpt lat="44.92056" lon="-0.47537">
        <ele>16.48</ele>
        <time>2021-07-07T20:09:08Z</time>
      </trkpt>
      <trkpt lat="44.92391" lon="-0.47345">
        <ele>17.44</ele>
        <time>2021-07-07T20:09:23Z</time>
      </trkpt>
      <trkpt lat="44.92742" lon="-0.47112">
        <ele>18.88</ele>
        <time>2021-07-07T20:09:38Z</time>
      </trkpt>
      <trkpt lat="44.93186" lon="-0.4683">
        <ele>14.56</ele>
        <time>2021-07-07T20:09:56Z</time>
      </trkpt>
      <trkpt lat="44.93422" lon="-0.46758">
        <ele>11.19</ele>
        <time>2021-07-07T20:10:05Z</time>
      </trkpt>
      <trkpt lat="44.93666" lon="-0.46714">
        <ele>5.91</ele>
        <time>2021-07-07T20:10:15Z</time>
      </trkpt>
      <trkpt lat="44.94023" lon="-0.46652">
        <ele>-2.75</ele>
        <time>2021-07-07T20:10:31Z</time>
      </trkpt>
      <trkpt lat="44.94243" lon="-0.46614">
        <ele>-3.23</ele>
        <time>2021-07-07T20:10:41Z</time>
      </trkpt>
      <trkpt lat="44.94407" lon="-0.46585">
        <ele>-3.23</ele>
        <time>2021-07-07T20:10:51Z</time>
      </trkpt>
      <trkpt lat="44.94457" lon="-0.46576">
        <ele>-3.23</ele>
        <time>2021-07-07T20:10:57Z</time>
      </trkpt>
      <trkpt lat="44.94509" lon="-0.46566">
        <ele>-1.79</ele>
        <time>2021-07-07T20:11:10Z</time>
      </trkpt>
      <trkpt lat="44.94573" lon="-0.46551">
        <ele>-0.82</ele>
        <time>2021-07-07T20:11:18Z</time>
      </trkpt>
      <trkpt lat="44.9471" lon="-0.46499">
        <ele>-1.3</ele>
        <time>2021-07-07T20:11:28Z</time>
      </trkpt>
      <trkpt lat="44.94872" lon="-0.46398">
        <ele>-0.34</ele>
        <time>2021-07-07T20:11:38Z</time>
      </trkpt>
      <trkpt lat="44.94981" lon="-0.46301">
        <ele>0.62</ele>
        <time>2021-07-07T20:11:46Z</time>
      </trkpt>
      <trkpt lat="44.95039" lon="-0.46235">
        <ele>1.58</ele>
        <time>2021-07-07T20:11:53Z</time>
      </trkpt>
      <trkpt lat="44.95085" lon="-0.46183">
        <ele>3.5</ele>
        <time>2021-07-07T20:12:03Z</time>
      </trkpt>
      <trkpt lat="44.95116" lon="-0.46141">
        <ele>5.42</ele>
        <time>2021-07-07T20:12:12Z</time>
      </trkpt>
      <trkpt lat="44.95198" lon="-0.46016">
        <ele>13.12</ele>
        <time>2021-07-07T20:12:24Z</time>
      </trkpt>
      <trkpt lat="44.95289" lon="-0.4584">
        <ele>22.25</ele>
        <time>2021-07-07T20:12:37Z</time>
      </trkpt>
      <trkpt lat="44.95396" lon="-0.45623">
        <ele>26.09</ele>
        <time>2021-07-07T20:12:49Z</time>
      </trkpt>
      <trkpt lat="44.95529" lon="-0.45351">
        <ele>22.73</ele>
        <time>2021-07-07T20:13:01Z</time>
      </trkpt>
      <trkpt lat="44.95711" lon="-0.44987">
        <ele>10.23</ele>
        <time>2021-07-07T20:13:17Z</time>
      </trkpt>
      <trkpt lat="44.95878" lon="-0.44691">
        <ele>1.1</ele>
        <time>2021-07-07T20:13:32Z</time>
      </trkpt>
      <trkpt lat="44.96024" lon="-0.44493">
        <ele>3.02</ele>
        <time>2021-07-07T20:13:45Z</time>
      </trkpt>
      <trkpt lat="44.9617" lon="-0.4433">
        <ele>3.98</ele>
        <time>2021-07-07T20:13:56Z</time>
      </trkpt>
      <trkpt lat="44.96382" lon="-0.44118">
        <ele>3.02</ele>
        <time>2021-07-07T20:14:11Z</time>
      </trkpt>
      <trkpt lat="44.9666" lon="-0.43847">
        <ele>3.02</ele>
        <time>2021-07-07T20:14:31Z</time>
      </trkpt>
      <trkpt lat="44.96904" lon="-0.43649">
        <ele>11.19</ele>
        <time>2021-07-07T20:14:46Z</time>
      </trkpt>
      <trkpt lat="44.97163" lon="-0.43504">
        <ele>16.96</ele>
        <time>2021-07-07T20:15:00Z</time>
      </trkpt>
      <trkpt lat="44.97504" lon="-0.43343">
        <ele>16</ele>
        <time>2021-07-07T20:15:17Z</time>
      </trkpt>
      <trkpt lat="44.97752" lon="-0.43176">
        <ele>16.96</ele>
        <time>2021-07-07T20:15:31Z</time>
      </trkpt>
      <trkpt lat="44.98048" lon="-0.42979">
        <ele>17.92</ele>
        <time>2021-07-07T20:15:46Z</time>
      </trkpt>
      <trkpt lat="44.98352" lon="-0.42834">
        <ele>16.48</ele>
        <time>2021-07-07T20:15:59Z</time>
      </trkpt>
      <trkpt lat="44.98653" lon="-0.42747">
        <ele>20.32</ele>
        <time>2021-07-07T20:16:13Z</time>
      </trkpt>
      <trkpt lat="44.99003" lon="-0.42702">
        <ele>23.21</ele>
        <time>2021-07-07T20:16:27Z</time>
      </trkpt>
      <trkpt lat="44.99363" lon="-0.42688">
        <ele>25.61</ele>
        <time>2021-07-07T20:16:41Z</time>
      </trkpt>
      <trkpt lat="44.99693" lon="-0.42676">
        <ele>32.34</ele>
        <time>2021-07-07T20:16:54Z</time>
      </trkpt>
      <trkpt lat="45.00065" lon="-0.42677">
        <ele>40.99</ele>
        <time>2021-07-07T20:17:09Z</time>
      </trkpt>
      <trkpt lat="45.00265" lon="-0.42694">
        <ele>43.88</ele>
        <time>2021-07-07T20:17:19Z</time>
      </trkpt>
      <trkpt lat="45.00651" lon="-0.42758">
        <ele>40.99</ele>
        <time>2021-07-07T20:17:38Z</time>
      </trkpt>
      <trkpt lat="45.01039" lon="-0.42872">
        <ele>37.15</ele>
        <time>2021-07-07T20:17:56Z</time>
      </trkpt>
      <trkpt lat="45.01234" lon="-0.42916">
        <ele>37.15</ele>
        <time>2021-07-07T20:18:06Z</time>
      </trkpt>
      <trkpt lat="45.01367" lon="-0.42885">
        <ele>42.92</ele>
        <time>2021-07-07T20:18:13Z</time>
      </trkpt>
      <trkpt lat="45.01522" lon="-0.42771">
        <ele>40.03</ele>
        <time>2021-07-07T20:18:22Z</time>
      </trkpt>
      <trkpt lat="45.01734" lon="-0.42644">
        <ele>40.03</ele>
        <time>2021-07-07T20:18:32Z</time>
      </trkpt>
      <trkpt lat="45.01985" lon="-0.42557">
        <ele>38.59</ele>
        <time>2021-07-07T20:18:43Z</time>
      </trkpt>
      <trkpt lat="45.02399" lon="-0.42418">
        <ele>41.47</ele>
        <time>2021-07-07T20:19:00Z</time>
      </trkpt>
      <trkpt lat="45.02668" lon="-0.42274">
        <ele>41.47</ele>
        <time>2021-07-07T20:19:11Z</time>
      </trkpt>
      <trkpt lat="45.03085" lon="-0.42029">
        <ele>41.95</ele>
        <time>2021-07-07T20:19:28Z</time>
      </trkpt>
      <trkpt lat="45.03539" lon="-0.41771">
        <ele>37.15</ele>
        <time>2021-07-07T20:19:46Z</time>
      </trkpt>
      <trkpt lat="45.03724" lon="-0.4159">
        <ele>35.71</ele>
        <time>2021-07-07T20:19:54Z</time>
      </trkpt>
      <trkpt lat="45.03968" lon="-0.4134">
        <ele>39.55</ele>
        <time>2021-07-07T20:20:05Z</time>
      </trkpt>
      <trkpt lat="45.04192" lon="-0.41202">
        <ele>40.99</ele>
        <time>2021-07-07T20:20:14Z</time>
      </trkpt>
      <trkpt lat="45.04482" lon="-0.41099">
        <ele>41.95</ele>
        <time>2021-07-07T20:20:25Z</time>
      </trkpt>
      <trkpt lat="45.04711" lon="-0.40984">
        <ele>41.95</ele>
        <time>2021-07-07T20:20:34Z</time>
      </trkpt>
      <trkpt lat="45.05149" lon="-0.40689">
        <ele>42.44</ele>
        <time>2021-07-07T20:20:52Z</time>
      </trkpt>
      <trkpt lat="45.05636" lon="-0.40355">
        <ele>38.59</ele>
        <time>2021-07-07T20:21:12Z</time>
      </trkpt>
      <trkpt lat="45.05796" lon="-0.40209">
        <ele>40.99</ele>
        <time>2021-07-07T20:21:19Z</time>
      </trkpt>
      <trkpt lat="45.05968" lon="-0.39968">
        <ele>45.32</ele>
        <time>2021-07-07T20:21:28Z</time>
      </trkpt>
      <trkpt lat="45.06221" lon="-0.39624">
        <ele>45.32</ele>
        <time>2021-07-07T20:21:41Z</time>
      </trkpt>
      <trkpt lat="45.06457" lon="-0.39428">
        <ele>45.8</ele>
        <time>2021-07-07T20:21:51Z</time>
      </trkpt>
      <trkpt lat="45.06853" lon="-0.3912">
        <ele>48.68</ele>
        <time>2021-07-07T20:22:07Z</time>
      </trkpt>
      <trkpt lat="45.07218" lon="-0.38836">
        <ele>45.8</ele>
        <time>2021-07-07T20:22:22Z</time>
      </trkpt>
      <trkpt lat="45.07448" lon="-0.38703">
        <ele>46.28</ele>
        <time>2021-07-07T20:22:31Z</time>
      </trkpt>
      <trkpt lat="45.07787" lon="-0.38593">
        <ele>44.36</ele>
        <time>2021-07-07T20:22:43Z</time>
      </trkpt>
      <trkpt lat="45.08618" lon="-0.38323">
        <ele>56.37</ele>
        <time>2021-07-07T20:23:12Z</time>
      </trkpt>
      <trkpt lat="45.09167" lon="-0.38139">
        <ele>51.57</ele>
        <time>2021-07-07T20:23:31Z</time>
      </trkpt>
      <trkpt lat="45.09438" lon="-0.38081">
        <ele>53.01</ele>
        <time>2021-07-07T20:23:41Z</time>
      </trkpt>
      <trkpt lat="45.09861" lon="-0.38072">
        <ele>43.4</ele>
        <time>2021-07-07T20:23:56Z</time>
      </trkpt>
      <trkpt lat="45.10431" lon="-0.38064">
        <ele>40.51</ele>
        <time>2021-07-07T20:24:16Z</time>
      </trkpt>
      <trkpt lat="45.10714" lon="-0.38021">
        <ele>30.42</ele>
        <time>2021-07-07T20:24:26Z</time>
      </trkpt>
      <trkpt lat="45.1097" lon="-0.3791">
        <ele>26.57</ele>
        <time>2021-07-07T20:24:35Z</time>
      </trkpt>
      <trkpt lat="45.11448" lon="-0.37669">
        <ele>26.57</ele>
        <time>2021-07-07T20:24:52Z</time>
      </trkpt>
      <trkpt lat="45.11721" lon="-0.3761">
        <ele>25.61</ele>
        <time>2021-07-07T20:25:02Z</time>
      </trkpt>
      <trkpt lat="45.12092" lon="-0.37546">
        <ele>28.98</ele>
        <time>2021-07-07T20:25:16Z</time>
      </trkpt>
      <trkpt lat="45.12511" lon="-0.37472">
        <ele>31.86</ele>
        <time>2021-07-07T20:25:32Z</time>
      </trkpt>
      <trkpt lat="45.12777" lon="-0.37389">
        <ele>35.71</ele>
        <time>2021-07-07T20:25:43Z</time>
      </trkpt>
      <trkpt lat="45.13086" lon="-0.3723">
        <ele>35.71</ele>
        <time>2021-07-07T20:25:56Z</time>
      </trkpt>
      <trkpt lat="45.13518" lon="-0.37002">
        <ele>39.55</ele>
        <time>2021-07-07T20:26:13Z</time>
      </trkpt>
      <trkpt lat="45.14063" lon="-0.36715">
        <ele>50.61</ele>
        <time>2021-07-07T20:26:34Z</time>
      </trkpt>
      <trkpt lat="45.14612" lon="-0.36426">
        <ele>47.24</ele>
        <time>2021-07-07T20:26:55Z</time>
      </trkpt>
      <trkpt lat="45.15061" lon="-0.36178">
        <ele>52.05</ele>
        <time>2021-07-07T20:27:12Z</time>
      </trkpt>
      <trkpt lat="45.15259" lon="-0.3601">
        <ele>57.34</ele>
        <time>2021-07-07T20:27:20Z</time>
      </trkpt>
      <trkpt lat="45.1545" lon="-0.35752">
        <ele>60.7</ele>
        <time>2021-07-07T20:27:29Z</time>
      </trkpt>
      <trkpt lat="45.15849" lon="-0.35044">
        <ele>57.82</ele>
        <time>2021-07-07T20:27:50Z</time>
      </trkpt>
      <trkpt lat="45.16149" lon="-0.34511">
        <ele>54.93</ele>
        <time>2021-07-07T20:28:05Z</time>
      </trkpt>
      <trkpt lat="45.1632" lon="-0.34261">
        <ele>51.57</ele>
        <time>2021-07-07T20:28:14Z</time>
      </trkpt>
      <trkpt lat="45.16614" lon="-0.33948">
        <ele>51.57</ele>
        <time>2021-07-07T20:28:26Z</time>
      </trkpt>
      <trkpt lat="45.17039" lon="-0.33505">
        <ele>56.86</ele>
        <time>2021-07-07T20:28:44Z</time>
      </trkpt>
      <trkpt lat="45.17503" lon="-0.33016">
        <ele>54.93</ele>
        <time>2021-07-07T20:29:04Z</time>
      </trkpt>
      <trkpt lat="45.18017" lon="-0.32472">
        <ele>60.7</ele>
        <time>2021-07-07T20:29:26Z</time>
      </trkpt>
      <trkpt lat="45.18553" lon="-0.31911">
        <ele>63.1</ele>
        <time>2021-07-07T20:29:49Z</time>
      </trkpt>
      <trkpt lat="45.18991" lon="-0.31453">
        <ele>66.47</ele>
        <time>2021-07-07T20:30:08Z</time>
      </trkpt>
      <trkpt lat="45.19386" lon="-0.31037">
        <ele>66.95</ele>
        <time>2021-07-07T20:30:25Z</time>
      </trkpt>
      <trkpt lat="45.19874" lon="-0.30524">
        <ele>64.07</ele>
        <time>2021-07-07T20:30:46Z</time>
      </trkpt>
      <trkpt lat="45.20225" lon="-0.30241">
        <ele>63.58</ele>
        <time>2021-07-07T20:30:59Z</time>
      </trkpt>
      <trkpt lat="45.20649" lon="-0.29915">
        <ele>67.43</ele>
        <time>2021-07-07T20:31:17Z</time>
      </trkpt>
      <trkpt lat="45.2111" lon="-0.2955">
        <ele>67.91</ele>
        <time>2021-07-07T20:31:35Z</time>
      </trkpt>
      <trkpt lat="45.21552" lon="-0.29198">
        <ele>72.24</ele>
        <time>2021-07-07T20:31:52Z</time>
      </trkpt>
      <trkpt lat="45.22109" lon="-0.28755">
        <ele>88.58</ele>
        <time>2021-07-07T20:32:13Z</time>
      </trkpt>
      <trkpt lat="45.22601" lon="-0.28365">
        <ele>101.08</ele>
        <time>2021-07-07T20:32:32Z</time>
      </trkpt>
      <trkpt lat="45.22977" lon="-0.28062">
        <ele>110.21</ele>
        <time>2021-07-07T20:32:47Z</time>
      </trkpt>
      <trkpt lat="45.23271" lon="-0.27817">
        <ele>111.65</ele>
        <time>2021-07-07T20:32:59Z</time>
      </trkpt>
      <trkpt lat="45.23458" lon="-0.27713">
        <ele>114.53</ele>
        <time>2021-07-07T20:33:07Z</time>
      </trkpt>
      <trkpt lat="45.23811" lon="-0.27528">
        <ele>120.78</ele>
        <time>2021-07-07T20:33:20Z</time>
      </trkpt>
      <trkpt lat="45.24083" lon="-0.27289">
        <ele>126.07</ele>
        <time>2021-07-07T20:33:31Z</time>
      </trkpt>
      <trkpt lat="45.24511" lon="-0.26898">
        <ele>113.09</ele>
        <time>2021-07-07T20:33:47Z</time>
      </trkpt>
      <trkpt lat="45.24892" lon="-0.26533">
        <ele>97.71</ele>
        <time>2021-07-07T20:34:04Z</time>
      </trkpt>
      <trkpt lat="45.25186" lon="-0.26217">
        <ele>95.79</ele>
        <time>2021-07-07T20:34:17Z</time>
      </trkpt>
      <trkpt lat="45.25543" lon="-0.2595">
        <ele>101.08</ele>
        <time>2021-07-07T20:34:31Z</time>
      </trkpt>
      <trkpt lat="45.25701" lon="-0.25792">
        <ele>109.73</ele>
        <time>2021-07-07T20:34:38Z</time>
      </trkpt>
      <trkpt lat="45.25878" lon="-0.25514">
        <ele>122.71</ele>
        <time>2021-07-07T20:34:48Z</time>
      </trkpt>
      <trkpt lat="45.2613" lon="-0.2513">
        <ele>129.92</ele>
        <time>2021-07-07T20:35:01Z</time>
      </trkpt>
      <trkpt lat="45.26309" lon="-0.24958">
        <ele>126.55</ele>
        <time>2021-07-07T20:35:10Z</time>
      </trkpt>
      <trkpt lat="45.26545" lon="-0.2482">
        <ele>120.3</ele>
        <time>2021-07-07T20:35:19Z</time>
      </trkpt>
      <trkpt lat="45.26865" lon="-0.24714">
        <ele>116.46</ele>
        <time>2021-07-07T20:35:31Z</time>
      </trkpt>
      <trkpt lat="45.27319" lon="-0.24571">
        <ele>112.13</ele>
        <time>2021-07-07T20:35:48Z</time>
      </trkpt>
      <trkpt lat="45.27656" lon="-0.24465">
        <ele>110.69</ele>
        <time>2021-07-07T20:36:01Z</time>
      </trkpt>
      <trkpt lat="45.27925" lon="-0.24381">
        <ele>106.84</ele>
        <time>2021-07-07T20:36:12Z</time>
      </trkpt>
      <trkpt lat="45.2812" lon="-0.2432">
        <ele>103.96</ele>
        <time>2021-07-07T20:36:24Z</time>
      </trkpt>
      <trkpt lat="45.28343" lon="-0.24251">
        <ele>99.63</ele>
        <time>2021-07-07T20:36:40Z</time>
      </trkpt>
      <trkpt lat="45.28536" lon="-0.24202">
        <ele>97.23</ele>
        <time>2021-07-07T20:36:54Z</time>
      </trkpt>
      <trkpt lat="45.28802" lon="-0.24156">
        <ele>94.35</ele>
        <time>2021-07-07T20:37:11Z</time>
      </trkpt>
      <trkpt lat="45.29021" lon="-0.24121">
        <ele>93.87</ele>
        <time>2021-07-07T20:37:24Z</time>
      </trkpt>
      <trkpt lat="45.29293" lon="-0.24074">
        <ele>95.79</ele>
        <time>2021-07-07T20:37:39Z</time>
      </trkpt>
      <trkpt lat="45.29578" lon="-0.24011">
        <ele>97.71</ele>
        <time>2021-07-07T20:37:53Z</time>
      </trkpt>
      <trkpt lat="45.29896" lon="-0.23933">
        <ele>98.67</ele>
        <time>2021-07-07T20:38:11Z</time>
      </trkpt>
      <trkpt lat="45.30215" lon="-0.2385">
        <ele>98.19</ele>
        <time>2021-07-07T20:38:28Z</time>
      </trkpt>
      <trkpt lat="45.30479" lon="-0.23727">
        <ele>98.67</ele>
        <time>2021-07-07T20:38:42Z</time>
      </trkpt>
      <trkpt lat="45.30761" lon="-0.23547">
        <ele>111.17</ele>
        <time>2021-07-07T20:38:57Z</time>
      </trkpt>
      <trkpt lat="45.31041" lon="-0.23365">
        <ele>113.57</ele>
        <time>2021-07-07T20:39:11Z</time>
      </trkpt>
      <trkpt lat="45.31388" lon="-0.23142">
        <ele>104.92</ele>
        <time>2021-07-07T20:39:26Z</time>
      </trkpt>
      <trkpt lat="45.31653" lon="-0.23023">
        <ele>109.25</ele>
        <time>2021-07-07T20:39:36Z</time>
      </trkpt>
      <trkpt lat="45.32079" lon="-0.22912">
        <ele>125.11</ele>
        <time>2021-07-07T20:39:52Z</time>
      </trkpt>
      <trkpt lat="45.32469" lon="-0.22795">
        <ele>134.72</ele>
        <time>2021-07-07T20:40:07Z</time>
      </trkpt>
      <trkpt lat="45.32768" lon="-0.22625">
        <ele>132.8</ele>
        <time>2021-07-07T20:40:19Z</time>
      </trkpt>
      <trkpt lat="45.33145" lon="-0.224">
        <ele>128.47</ele>
        <time>2021-07-07T20:40:34Z</time>
      </trkpt>
      <trkpt lat="45.33472" lon="-0.22197">
        <ele>126.07</ele>
        <time>2021-07-07T20:40:48Z</time>
      </trkpt>
      <trkpt lat="45.33676" lon="-0.22012">
        <ele>127.51</ele>
        <time>2021-07-07T20:40:57Z</time>
      </trkpt>
      <trkpt lat="45.33877" lon="-0.21742">
        <ele>129.43</ele>
        <time>2021-07-07T20:41:07Z</time>
      </trkpt>
      <trkpt lat="45.34308" lon="-0.21109">
        <ele>127.03</ele>
        <time>2021-07-07T20:41:29Z</time>
      </trkpt>
      <trkpt lat="45.34678" lon="-0.20573">
        <ele>128.95</ele>
        <time>2021-07-07T20:41:48Z</time>
      </trkpt>
      <trkpt lat="45.35038" lon="-0.20086">
        <ele>127.99</ele>
        <time>2021-07-07T20:42:06Z</time>
      </trkpt>
      <trkpt lat="45.35274" lon="-0.19873">
        <ele>124.15</ele>
        <time>2021-07-07T20:42:16Z</time>
      </trkpt>
      <trkpt lat="45.35745" lon="-0.19486">
        <ele>107.32</ele>
        <time>2021-07-07T20:42:35Z</time>
      </trkpt>
      <trkpt lat="45.35997" lon="-0.19216">
        <ele>115.01</ele>
        <time>2021-07-07T20:42:46Z</time>
      </trkpt>
      <trkpt lat="45.36402" lon="-0.18736">
        <ele>125.59</ele>
        <time>2021-07-07T20:43:05Z</time>
      </trkpt>
      <trkpt lat="45.3672" lon="-0.18369">
        <ele>124.15</ele>
        <time>2021-07-07T20:43:20Z</time>
      </trkpt>
      <trkpt lat="45.36965" lon="-0.18192">
        <ele>121.26</ele>
        <time>2021-07-07T20:43:29Z</time>
      </trkpt>
      <trkpt lat="45.37158" lon="-0.18117">
        <ele>118.38</ele>
        <time>2021-07-07T20:43:37Z</time>
      </trkpt>
      <trkpt lat="45.37387" lon="-0.18089">
        <ele>119.82</ele>
        <time>2021-07-07T20:43:45Z</time>
      </trkpt>
      <trkpt lat="45.37672" lon="-0.18135">
        <ele>120.78</ele>
        <time>2021-07-07T20:43:55Z</time>
      </trkpt>
      <trkpt lat="45.37997" lon="-0.18185">
        <ele>124.15</ele>
        <time>2021-07-07T20:44:06Z</time>
      </trkpt>
      <trkpt lat="45.3826" lon="-0.18142">
        <ele>131.36</ele>
        <time>2021-07-07T20:44:15Z</time>
      </trkpt>
      <trkpt lat="45.38561" lon="-0.18017">
        <ele>137.13</ele>
        <time>2021-07-07T20:44:25Z</time>
      </trkpt>
      <trkpt lat="45.3879" lon="-0.17957">
        <ele>134.24</ele>
        <time>2021-07-07T20:44:34Z</time>
      </trkpt>
      <trkpt lat="45.39121" lon="-0.17939">
        <ele>124.63</ele>
        <time>2021-07-07T20:44:44Z</time>
      </trkpt>
      <trkpt lat="45.39566" lon="-0.17909">
        <ele>108.77</ele>
        <time>2021-07-07T20:45:00Z</time>
      </trkpt>
      <trkpt lat="45.39943" lon="-0.17877">
        <ele>102.04</ele>
        <time>2021-07-07T20:45:12Z</time>
      </trkpt>
      <trkpt lat="45.40402" lon="-0.17835">
        <ele>108.29</ele>
        <time>2021-07-07T20:45:30Z</time>
      </trkpt>
      <trkpt lat="45.40658" lon="-0.17836">
        <ele>99.63</ele>
        <time>2021-07-07T20:45:40Z</time>
      </trkpt>
      <trkpt lat="45.4093" lon="-0.17823">
        <ele>95.31</ele>
        <time>2021-07-07T20:45:51Z</time>
      </trkpt>
      <trkpt lat="45.41169" lon="-0.17742">
        <ele>96.27</ele>
        <time>2021-07-07T20:46:01Z</time>
      </trkpt>
      <trkpt lat="45.41436" lon="-0.176">
        <ele>91.46</ele>
        <time>2021-07-07T20:46:12Z</time>
      </trkpt>
      <trkpt lat="45.41639" lon="-0.17541">
        <ele>87.14</ele>
        <time>2021-07-07T20:46:20Z</time>
      </trkpt>
      <trkpt lat="45.41943" lon="-0.17488">
        <ele>86.18</ele>
        <time>2021-07-07T20:46:31Z</time>
      </trkpt>
      <trkpt lat="45.42251" lon="-0.17369">
        <ele>92.42</ele>
        <time>2021-07-07T20:46:42Z</time>
      </trkpt>
      <trkpt lat="45.42563" lon="-0.17276">
        <ele>89.06</ele>
        <time>2021-07-07T20:46:53Z</time>
      </trkpt>
      <trkpt lat="45.42801" lon="-0.17269">
        <ele>91.94</ele>
        <time>2021-07-07T20:47:01Z</time>
      </trkpt>
      <trkpt lat="45.43145" lon="-0.17334">
        <ele>96.75</ele>
        <time>2021-07-07T20:47:13Z</time>
      </trkpt>
      <trkpt lat="45.43492" lon="-0.17379">
        <ele>93.87</ele>
        <time>2021-07-07T20:47:25Z</time>
      </trkpt>
      <trkpt lat="45.43722" lon="-0.17348">
        <ele>89.06</ele>
        <time>2021-07-07T20:47:33Z</time>
      </trkpt>
      <trkpt lat="45.43951" lon="-0.17245">
        <ele>82.81</ele>
        <time>2021-07-07T20:47:41Z</time>
      </trkpt>
      <trkpt lat="45.44158" lon="-0.1708">
        <ele>89.54</ele>
        <time>2021-07-07T20:47:49Z</time>
      </trkpt>
      <trkpt lat="45.44336" lon="-0.16861">
        <ele>96.75</ele>
        <time>2021-07-07T20:47:57Z</time>
      </trkpt>
      <trkpt lat="45.44503" lon="-0.16564">
        <ele>98.67</ele>
        <time>2021-07-07T20:48:06Z</time>
      </trkpt>
      <trkpt lat="45.44811" lon="-0.16057">
        <ele>93.87</ele>
        <time>2021-07-07T20:48:21Z</time>
      </trkpt>
      <trkpt lat="45.45326" lon="-0.15223">
        <ele>83.77</ele>
        <time>2021-07-07T20:48:46Z</time>
      </trkpt>
      <trkpt lat="45.45801" lon="-0.14464">
        <ele>77.52</ele>
        <time>2021-07-07T20:49:08Z</time>
      </trkpt>
      <trkpt lat="45.45991" lon="-0.14119">
        <ele>72.24</ele>
        <time>2021-07-07T20:49:19Z</time>
      </trkpt>
      <trkpt lat="45.4621" lon="-0.13765">
        <ele>64.55</ele>
        <time>2021-07-07T20:49:30Z</time>
      </trkpt>
      <trkpt lat="45.46399" lon="-0.13567">
        <ele>62.62</ele>
        <time>2021-07-07T20:49:38Z</time>
      </trkpt>
      <trkpt lat="45.46612" lon="-0.13427">
        <ele>62.14</ele>
        <time>2021-07-07T20:49:46Z</time>
      </trkpt>
      <trkpt lat="45.46869" lon="-0.13348">
        <ele>62.14</ele>
        <time>2021-07-07T20:49:54Z</time>
      </trkpt>
      <trkpt lat="45.47199" lon="-0.13305">
        <ele>63.58</ele>
        <time>2021-07-07T20:50:06Z</time>
      </trkpt>
      <trkpt lat="45.47617" lon="-0.1321">
        <ele>64.55</ele>
        <time>2021-07-07T20:50:20Z</time>
      </trkpt>
      <trkpt lat="45.48157" lon="-0.13088">
        <ele>65.51</ele>
        <time>2021-07-07T20:50:38Z</time>
      </trkpt>
      <trkpt lat="45.48604" lon="-0.13041">
        <ele>57.34</ele>
        <time>2021-07-07T20:50:53Z</time>
      </trkpt>
      <trkpt lat="45.49062" lon="-0.12973">
        <ele>48.2</ele>
        <time>2021-07-07T20:51:09Z</time>
      </trkpt>
      <trkpt lat="45.49282" lon="-0.12869">
        <ele>45.32</ele>
        <time>2021-07-07T20:51:17Z</time>
      </trkpt>
      <trkpt lat="45.49672" lon="-0.12587">
        <ele>40.99</ele>
        <time>2021-07-07T20:51:32Z</time>
      </trkpt>
      <trkpt lat="45.49924" lon="-0.12345">
        <ele>42.92</ele>
        <time>2021-07-07T20:51:42Z</time>
      </trkpt>
      <trkpt lat="45.50446" lon="-0.11772">
        <ele>61.66</ele>
        <time>2021-07-07T20:52:04Z</time>
      </trkpt>
      <trkpt lat="45.50936" lon="-0.11235">
        <ele>83.29</ele>
        <time>2021-07-07T20:52:25Z</time>
      </trkpt>
      <trkpt lat="45.51318" lon="-0.10812">
        <ele>74.16</ele>
        <time>2021-07-07T20:52:41Z</time>
      </trkpt>
      <trkpt lat="45.51703" lon="-0.10391">
        <ele>64.55</ele>
        <time>2021-07-07T20:52:57Z</time>
      </trkpt>
      <trkpt lat="45.51957" lon="-0.10093">
        <ele>53.97</ele>
        <time>2021-07-07T20:53:08Z</time>
      </trkpt>
      <trkpt lat="45.52073" lon="-0.09861">
        <ele>51.57</ele>
        <time>2021-07-07T20:53:15Z</time>
      </trkpt>
      <trkpt lat="45.52137" lon="-0.09627">
        <ele>48.68</ele>
        <time>2021-07-07T20:53:21Z</time>
      </trkpt>
      <trkpt lat="45.52221" lon="-0.09034">
        <ele>44.84</ele>
        <time>2021-07-07T20:53:35Z</time>
      </trkpt>
      <trkpt lat="45.52261" lon="-0.08622">
        <ele>47.72</ele>
        <time>2021-07-07T20:53:45Z</time>
      </trkpt>
      <trkpt lat="45.52242" lon="-0.08259">
        <ele>53.49</ele>
        <time>2021-07-07T20:53:54Z</time>
      </trkpt>
      <trkpt lat="45.52226" lon="-0.08019">
        <ele>57.82</ele>
        <time>2021-07-07T20:54:01Z</time>
      </trkpt>
      <trkpt lat="45.52227" lon="-0.07657">
        <ele>59.26</ele>
        <time>2021-07-07T20:54:10Z</time>
      </trkpt>
      <trkpt lat="45.52274" lon="-0.07347">
        <ele>58.78</ele>
        <time>2021-07-07T20:54:19Z</time>
      </trkpt>
      <trkpt lat="45.52382" lon="-0.07017">
        <ele>61.66</ele>
        <time>2021-07-07T20:54:27Z</time>
      </trkpt>
      <trkpt lat="45.52505" lon="-0.06791">
        <ele>70.31</ele>
        <time>2021-07-07T20:54:35Z</time>
      </trkpt>
      <trkpt lat="45.52672" lon="-0.06576">
        <ele>80.41</ele>
        <time>2021-07-07T20:54:43Z</time>
      </trkpt>
      <trkpt lat="45.52855" lon="-0.0633">
        <ele>89.54</ele>
        <time>2021-07-07T20:54:52Z</time>
      </trkpt>
      <trkpt lat="45.52978" lon="-0.06063">
        <ele>92.42</ele>
        <time>2021-07-07T20:55:00Z</time>
      </trkpt>
      <trkpt lat="45.5318" lon="-0.0562">
        <ele>102.52</ele>
        <time>2021-07-07T20:55:13Z</time>
      </trkpt>
      <trkpt lat="45.53602" lon="-0.04842">
        <ele>125.11</ele>
        <time>2021-07-07T20:55:37Z</time>
      </trkpt>
      <trkpt lat="45.53799" lon="-0.04544">
        <ele>124.15</ele>
        <time>2021-07-07T20:55:46Z</time>
      </trkpt>
      <trkpt lat="45.53945" lon="-0.04412">
        <ele>117.42</ele>
        <time>2021-07-07T20:55:53Z</time>
      </trkpt>
      <trkpt lat="45.54137" lon="-0.04268">
        <ele>103.96</ele>
        <time>2021-07-07T20:56:01Z</time>
      </trkpt>
      <trkpt lat="45.54319" lon="-0.04041">
        <ele>91.46</ele>
        <time>2021-07-07T20:56:10Z</time>
      </trkpt>
      <trkpt lat="45.54428" lon="-0.03819">
        <ele>80.41</ele>
        <time>2021-07-07T20:56:17Z</time>
      </trkpt>
      <trkpt lat="45.54504" lon="-0.03558">
        <ele>74.16</ele>
        <time>2021-07-07T20:56:24Z</time>
      </trkpt>
      <trkpt lat="45.54537" lon="-0.03238">
        <ele>74.16</ele>
        <time>2021-07-07T20:56:32Z</time>
      </trkpt>
      <trkpt lat="45.54557" lon="-0.02667">
        <ele>72.72</ele>
        <time>2021-07-07T20:56:46Z</time>
      </trkpt>
      <trkpt lat="45.54603" lon="-0.02311">
        <ele>67.43</ele>
        <time>2021-07-07T20:56:55Z</time>
      </trkpt>
      <trkpt lat="45.54703" lon="-0.01968">
        <ele>57.34</ele>
        <time>2021-07-07T20:57:04Z</time>
      </trkpt>
      <trkpt lat="45.54985" lon="-0.01236">
        <ele>61.66</ele>
        <time>2021-07-07T20:57:24Z</time>
      </trkpt>
      <trkpt lat="45.55247" lon="-0.00582">
        <ele>82.81</ele>
        <time>2021-07-07T20:57:43Z</time>
      </trkpt>
      <trkpt lat="45.55487" lon="-0.00142">
        <ele>93.39</ele>
        <time>2021-07-07T20:57:57Z</time>
      </trkpt>
      <trkpt lat="45.55833" lon="0.00499">
        <ele>77.04</ele>
        <time>2021-07-07T20:58:17Z</time>
      </trkpt>
      <trkpt lat="45.56218" lon="0.01189">
        <ele>56.86</ele>
        <time>2021-07-07T20:58:38Z</time>
      </trkpt>
      <trkpt lat="45.56612" lon="0.01905">
        <ele>59.74</ele>
        <time>2021-07-07T20:58:59Z</time>
      </trkpt>
      <trkpt lat="45.57078" lon="0.02735">
        <ele>58.78</ele>
        <time>2021-07-07T20:59:22Z</time>
      </trkpt>
      <trkpt lat="45.57277" lon="0.0302">
        <ele>60.22</ele>
        <time>2021-07-07T20:59:32Z</time>
      </trkpt>
      <trkpt lat="45.57702" lon="0.03525">
        <ele>62.14</ele>
        <time>2021-07-07T20:59:50Z</time>
      </trkpt>
      <trkpt lat="45.58264" lon="0.04191">
        <ele>47.72</ele>
        <time>2021-07-07T21:00:14Z</time>
      </trkpt>
      <trkpt lat="45.58615" lon="0.04599">
        <ele>40.51</ele>
        <time>2021-07-07T21:00:31Z</time>
      </trkpt>
      <trkpt lat="45.58747" lon="0.04824">
        <ele>42.44</ele>
        <time>2021-07-07T21:00:38Z</time>
      </trkpt>
      <trkpt lat="45.58885" lon="0.05207">
        <ele>44.84</ele>
        <time>2021-07-07T21:00:48Z</time>
      </trkpt>
      <trkpt lat="45.59133" lon="0.05864">
        <ele>53.01</ele>
        <time>2021-07-07T21:01:05Z</time>
      </trkpt>
      <trkpt lat="45.59358" lon="0.06257">
        <ele>57.82</ele>
        <time>2021-07-07T21:01:17Z</time>
      </trkpt>
      <trkpt lat="45.59704" lon="0.06837">
        <ele>55.41</ele>
        <time>2021-07-07T21:01:35Z</time>
      </trkpt>
      <trkpt lat="45.5987" lon="0.07079">
        <ele>58.3</ele>
        <time>2021-07-07T21:01:45Z</time>
      </trkpt>
      <trkpt lat="45.60021" lon="0.07192">
        <ele>59.26</ele>
        <time>2021-07-07T21:01:52Z</time>
      </trkpt>
      <trkpt lat="45.60294" lon="0.07334">
        <ele>62.14</ele>
        <time>2021-07-07T21:02:04Z</time>
      </trkpt>
      <trkpt lat="45.60553" lon="0.075">
        <ele>63.1</ele>
        <time>2021-07-07T21:02:15Z</time>
      </trkpt>
      <trkpt lat="45.60714" lon="0.07698">
        <ele>57.34</ele>
        <time>2021-07-07T21:02:23Z</time>
      </trkpt>
      <trkpt lat="45.60852" lon="0.07991">
        <ele>43.88</ele>
        <time>2021-07-07T21:02:31Z</time>
      </trkpt>
      <trkpt lat="45.60918" lon="0.08251">
        <ele>39.07</ele>
        <time>2021-07-07T21:02:38Z</time>
      </trkpt>
      <trkpt lat="45.61041" lon="0.08714">
        <ele>41.95</ele>
        <time>2021-07-07T21:02:52Z</time>
      </trkpt>
      <trkpt lat="45.6124" lon="0.09217">
        <ele>49.65</ele>
        <time>2021-07-07T21:03:07Z</time>
      </trkpt>
      <trkpt lat="45.61434" lon="0.09643">
        <ele>51.57</ele>
        <time>2021-07-07T21:03:20Z</time>
      </trkpt>
      <trkpt lat="45.61634" lon="0.09951">
        <ele>59.26</ele>
        <time>2021-07-07T21:03:31Z</time>
      </trkpt>
      <trkpt lat="45.61951" lon="0.10358">
        <ele>59.26</ele>
        <time>2021-07-07T21:03:47Z</time>
      </trkpt>
      <trkpt lat="45.62202" lon="0.10675">
        <ele>47.72</ele>
        <time>2021-07-07T21:04:01Z</time>
      </trkpt>
      <trkpt lat="45.62439" lon="0.10934">
        <ele>41.47</ele>
        <time>2021-07-07T21:04:12Z</time>
      </trkpt>
      <trkpt lat="45.62739" lon="0.11173">
        <ele>39.55</ele>
        <time>2021-07-07T21:04:24Z</time>
      </trkpt>
      <trkpt lat="45.63269" lon="0.1157">
        <ele>44.84</ele>
        <time>2021-07-07T21:04:44Z</time>
      </trkpt>
      <trkpt lat="45.6355" lon="0.11759">
        <ele>37.63</ele>
        <time>2021-07-07T21:04:56Z</time>
      </trkpt>
      <trkpt lat="45.63801" lon="0.11846">
        <ele>36.19</ele>
        <time>2021-07-07T21:05:05Z</time>
      </trkpt>
      <trkpt lat="45.64082" lon="0.11863">
        <ele>34.74</ele>
        <time>2021-07-07T21:05:15Z</time>
      </trkpt>
      <trkpt lat="45.64579" lon="0.11864">
        <ele>43.4</ele>
        <time>2021-07-07T21:05:33Z</time>
      </trkpt>
      <trkpt lat="45.65013" lon="0.11865">
        <ele>44.84</ele>
        <time>2021-07-07T21:05:48Z</time>
      </trkpt>
      <trkpt lat="45.6526" lon="0.11899">
        <ele>47.72</ele>
        <time>2021-07-07T21:05:57Z</time>
      </trkpt>
      <trkpt lat="45.655" lon="0.12012">
        <ele>48.2</ele>
        <time>2021-07-07T21:06:06Z</time>
      </trkpt>
      <trkpt lat="45.65689" lon="0.12174">
        <ele>42.44</ele>
        <time>2021-07-07T21:06:14Z</time>
      </trkpt>
      <trkpt lat="45.65802" lon="0.12301">
        <ele>38.11</ele>
        <time>2021-07-07T21:06:20Z</time>
      </trkpt>
      <trkpt lat="45.65922" lon="0.12439">
        <ele>37.15</ele>
        <time>2021-07-07T21:06:29Z</time>
      </trkpt>
      <trkpt lat="45.66023" lon="0.12556">
        <ele>35.71</ele>
        <time>2021-07-07T21:06:38Z</time>
      </trkpt>
      <trkpt lat="45.66189" lon="0.12749">
        <ele>37.63</ele>
        <time>2021-07-07T21:06:55Z</time>
      </trkpt>
      <trkpt lat="45.66295" lon="0.12872">
        <ele>36.67</ele>
        <time>2021-07-07T21:07:05Z</time>
      </trkpt>
      <trkpt lat="45.66332" lon="0.12952">
        <ele>33.78</ele>
        <time>2021-07-07T21:07:14Z</time>
      </trkpt>
      <trkpt lat="45.6634" lon="0.12962">
        <ele>32.82</ele>
        <time>2021-07-07T21:07:20Z</time>
      </trkpt>
      <trkpt lat="45.6634" lon="0.12962">
        <ele>32.34</ele>
        <time>2021-07-07T21:07:22Z</time>
      </trkpt>
      <trkpt lat="45.66345" lon="0.12969">
        <ele>32.34</ele>
        <time>2021-07-07T21:07:25Z</time>
      </trkpt>
      <trkpt lat="45.66348" lon="0.12974">
        <ele>31.86</ele>
        <time>2021-07-07T21:07:26Z</time>
      </trkpt>
      <trkpt lat="45.66351" lon="0.12978">
        <ele>31.86</ele>
        <time>2021-07-07T21:07:27Z</time>
      </trkpt>
      <trkpt lat="45.6635" lon="0.12989">
        <ele>31.38</ele>
        <time>2021-07-07T21:07:28Z</time>
      </trkpt>
      <trkpt lat="45.66347" lon="0.12997">
        <ele>31.38</ele>
        <time>2021-07-07T21:07:29Z</time>
      </trkpt>
      <trkpt lat="45.66343" lon="0.13007">
        <ele>31.38</ele>
        <time>2021-07-07T21:07:30Z</time>
      </trkpt>
      <trkpt lat="45.66313" lon="0.1309">
        <ele>29.94</ele>
        <time>2021-07-07T21:07:38Z</time>
      </trkpt>
      <trkpt lat="45.66307" lon="0.13108">
        <ele>29.46</ele>
        <time>2021-07-07T21:07:47Z</time>
      </trkpt>
      <trkpt lat="45.66286" lon="0.13198">
        <ele>30.9</ele>
        <time>2021-07-07T21:07:55Z</time>
      </trkpt>
      <trkpt lat="45.66225" lon="0.13459">
        <ele>31.38</ele>
        <time>2021-07-07T21:08:11Z</time>
      </trkpt>
      <trkpt lat="45.66161" lon="0.13734">
        <ele>32.34</ele>
        <time>2021-07-07T21:08:26Z</time>
      </trkpt>
      <trkpt lat="45.66133" lon="0.13819">
        <ele>32.82</ele>
        <time>2021-07-07T21:08:34Z</time>
      </trkpt>
      <trkpt lat="45.66101" lon="0.13906">
        <ele>32.82</ele>
        <time>2021-07-07T21:08:42Z</time>
      </trkpt>
      <trkpt lat="45.66029" lon="0.1406">
        <ele>31.38</ele>
        <time>2021-07-07T21:08:55Z</time>
      </trkpt>
      <trkpt lat="45.65947" lon="0.14241">
        <ele>29.46</ele>
        <time>2021-07-07T21:09:10Z</time>
      </trkpt>
      <trkpt lat="45.65937" lon="0.14265">
        <ele>29.94</ele>
        <time>2021-07-07T21:09:13Z</time>
      </trkpt>
      <trkpt lat="45.65935" lon="0.14269">
        <ele>29.94</ele>
        <time>2021-07-07T21:09:14Z</time>
      </trkpt>
      <trkpt lat="45.65916" lon="0.14273">
        <ele>29.94</ele>
        <time>2021-07-07T21:09:17Z</time>
      </trkpt>
      <trkpt lat="45.65915" lon="0.14278">
        <ele>29.46</ele>
        <time>2021-07-07T21:09:18Z</time>
      </trkpt>
      <trkpt lat="45.65918" lon="0.1429">
        <ele>29.46</ele>
        <time>2021-07-07T21:09:19Z</time>
      </trkpt>
      <trkpt lat="45.65929" lon="0.14295">
        <ele>29.46</ele>
        <time>2021-07-07T21:09:20Z</time>
      </trkpt>
      <trkpt lat="45.65935" lon="0.143">
        <ele>29.46</ele>
        <time>2021-07-07T21:09:21Z</time>
      </trkpt>
      <trkpt lat="45.65935" lon="0.143">
        <ele>28.98</ele>
        <time>2021-07-07T21:09:22Z</time>
      </trkpt>
      <trkpt lat="45.66035" lon="0.1437">
        <ele>34.26</ele>
        <time>2021-07-07T21:09:31Z</time>
      </trkpt>
      <trkpt lat="45.66187" lon="0.14481">
        <ele>41.95</ele>
        <time>2021-07-07T21:09:43Z</time>
      </trkpt>
      <trkpt lat="45.66187" lon="0.14481">
        <ele>41.95</ele>
        <time>2021-07-07T21:09:44Z</time>
      </trkpt>
      <trkpt lat="45.66202" lon="0.1449">
        <ele>42.44</ele>
        <time>2021-07-07T21:09:45Z</time>
      </trkpt>
      <trkpt lat="45.66208" lon="0.14493">
        <ele>42.44</ele>
        <time>2021-07-07T21:09:46Z</time>
      </trkpt>
      <trkpt lat="45.66208" lon="0.14493">
        <ele>42.44</ele>
        <time>2021-07-07T21:09:47Z</time>
      </trkpt>
      <trkpt lat="45.66215" lon="0.14496">
        <ele>42.44</ele>
        <time>2021-07-07T21:09:48Z</time>
      </trkpt>
      <trkpt lat="45.66261" lon="0.14517">
        <ele>40.99</ele>
        <time>2021-07-07T21:09:53Z</time>
      </trkpt>
      <trkpt lat="45.66271" lon="0.14525">
        <ele>40.99</ele>
        <time>2021-07-07T21:09:54Z</time>
      </trkpt>
      <trkpt lat="45.66364" lon="0.14634">
        <ele>50.13</ele>
        <time>2021-07-07T21:10:03Z</time>
      </trkpt>
      <trkpt lat="45.6642" lon="0.14759">
        <ele>49.65</ele>
        <time>2021-07-07T21:10:11Z</time>
      </trkpt>
      <trkpt lat="45.66423" lon="0.14772">
        <ele>49.16</ele>
        <time>2021-07-07T21:10:12Z</time>
      </trkpt>
      <trkpt lat="45.66425" lon="0.14784">
        <ele>48.2</ele>
        <time>2021-07-07T21:10:13Z</time>
      </trkpt>
      <trkpt lat="45.66426" lon="0.14794">
        <ele>48.68</ele>
        <time>2021-07-07T21:10:14Z</time>
      </trkpt>
      <trkpt lat="45.66427" lon="0.14803">
        <ele>48.68</ele>
        <time>2021-07-07T21:10:15Z</time>
      </trkpt>
      <trkpt lat="45.66431" lon="0.1481">
        <ele>48.68</ele>
        <time>2021-07-07T21:10:16Z</time>
      </trkpt>
      <trkpt lat="45.66434" lon="0.14818">
        <ele>48.68</ele>
        <time>2021-07-07T21:10:17Z</time>
      </trkpt>
      <trkpt lat="45.66435" lon="0.14825">
        <ele>48.2</ele>
        <time>2021-07-07T21:10:18Z</time>
      </trkpt>
      <trkpt lat="45.66437" lon="0.14833">
        <ele>48.2</ele>
        <time>2021-07-07T21:10:19Z</time>
      </trkpt>
      <trkpt lat="45.66439" lon="0.14844">
        <ele>47.72</ele>
        <time>2021-07-07T21:10:20Z</time>
      </trkpt>
      <trkpt lat="45.6644" lon="0.14959">
        <ele>45.32</ele>
        <time>2021-07-07T21:10:27Z</time>
      </trkpt>
      <trkpt lat="45.66414" lon="0.1515">
        <ele>40.03</ele>
        <time>2021-07-07T21:10:38Z</time>
      </trkpt>
      <trkpt lat="45.66414" lon="0.1515">
        <ele>40.03</ele>
        <time>2021-07-07T21:10:39Z</time>
      </trkpt>
      <trkpt lat="45.66413" lon="0.15158">
        <ele>39.55</ele>
        <time>2021-07-07T21:10:40Z</time>
      </trkpt>
      <trkpt lat="45.66412" lon="0.15164">
        <ele>39.55</ele>
        <time>2021-07-07T21:10:41Z</time>
      </trkpt>
      <trkpt lat="45.66407" lon="0.15164">
        <ele>39.07</ele>
        <time>2021-07-07T21:10:42Z</time>
      </trkpt>
      <trkpt lat="45.66401" lon="0.15171">
        <ele>38.59</ele>
        <time>2021-07-07T21:10:43Z</time>
      </trkpt>
      <trkpt lat="45.66401" lon="0.1519">
        <ele>38.11</ele>
        <time>2021-07-07T21:10:44Z</time>
      </trkpt>
      <trkpt lat="45.66401" lon="0.1519">
        <ele>37.63</ele>
        <time>2021-07-07T21:10:45Z</time>
      </trkpt>
      <trkpt lat="45.66398" lon="0.15199">
        <ele>37.15</ele>
        <time>2021-07-07T21:10:46Z</time>
      </trkpt>
      <trkpt lat="45.66394" lon="0.15211">
        <ele>36.67</ele>
        <time>2021-07-07T21:10:47Z</time>
      </trkpt>
      <trkpt lat="45.66352" lon="0.1534">
        <ele>32.34</ele>
        <time>2021-07-07T21:10:54Z</time>
      </trkpt>
      <trkpt lat="45.66274" lon="0.15569">
        <ele>28.98</ele>
        <time>2021-07-07T21:11:06Z</time>
      </trkpt>
      <trkpt lat="45.66269" lon="0.15582">
        <ele>29.46</ele>
        <time>2021-07-07T21:11:07Z</time>
      </trkpt>
      <trkpt lat="45.66264" lon="0.15594">
        <ele>29.46</ele>
        <time>2021-07-07T21:11:08Z</time>
      </trkpt>
      <trkpt lat="45.66249" lon="0.15605">
        <ele>30.42</ele>
        <time>2021-07-07T21:11:10Z</time>
      </trkpt>
      <trkpt lat="45.66245" lon="0.15612">
        <ele>29.94</ele>
        <time>2021-07-07T21:11:11Z</time>
      </trkpt>
      <trkpt lat="45.66253" lon="0.15632">
        <ele>29.94</ele>
        <time>2021-07-07T21:11:12Z</time>
      </trkpt>
      <trkpt lat="45.66251" lon="0.15637">
        <ele>29.46</ele>
        <time>2021-07-07T21:11:13Z</time>
      </trkpt>
      <trkpt lat="45.66249" lon="0.15647">
        <ele>29.46</ele>
        <time>2021-07-07T21:11:14Z</time>
      </trkpt>
      <trkpt lat="45.66246" lon="0.15659">
        <ele>29.46</ele>
        <time>2021-07-07T21:11:15Z</time>
      </trkpt>
      <trkpt lat="45.66242" lon="0.15671">
        <ele>28.98</ele>
        <time>2021-07-07T21:11:16Z</time>
      </trkpt>
      <trkpt lat="45.66199" lon="0.1581">
        <ele>29.46</ele>
        <time>2021-07-07T21:11:24Z</time>
      </trkpt>
      <trkpt lat="45.6611" lon="0.16062">
        <ele>29.94</ele>
        <time>2021-07-07T21:11:37Z</time>
      </trkpt>
      <trkpt lat="45.66086" lon="0.16131">
        <ele>30.42</ele>
        <time>2021-07-07T21:11:42Z</time>
      </trkpt>
      <trkpt lat="45.66083" lon="0.16139">
        <ele>30.9</ele>
        <time>2021-07-07T21:11:43Z</time>
      </trkpt>
      <trkpt lat="45.66074" lon="0.16149">
        <ele>30.9</ele>
        <time>2021-07-07T21:11:49Z</time>
      </trkpt>
      <trkpt lat="45.66071" lon="0.16151">
        <ele>30.9</ele>
        <time>2021-07-07T21:11:50Z</time>
      </trkpt>
      <trkpt lat="45.66061" lon="0.16163">
        <ele>30.9</ele>
        <time>2021-07-07T21:11:51Z</time>
      </trkpt>
      <trkpt lat="45.66061" lon="0.16163">
        <ele>30.42</ele>
        <time>2021-07-07T21:11:52Z</time>
      </trkpt>
      <trkpt lat="45.6606" lon="0.16169">
        <ele>29.94</ele>
        <time>2021-07-07T21:11:53Z</time>
      </trkpt>
      <trkpt lat="45.66063" lon="0.16179">
        <ele>29.94</ele>
        <time>2021-07-07T21:11:54Z</time>
      </trkpt>
      <trkpt lat="45.66065" lon="0.16186">
        <ele>29.94</ele>
        <time>2021-07-07T21:11:55Z</time>
      </trkpt>
      <trkpt lat="45.66073" lon="0.16194">
        <ele>29.94</ele>
        <time>2021-07-07T21:11:56Z</time>
      </trkpt>
      <trkpt lat="45.66089" lon="0.16195">
        <ele>29.46</ele>
        <time>2021-07-07T21:11:57Z</time>
      </trkpt>
      <trkpt lat="45.66151" lon="0.16246">
        <ele>22.73</ele>
        <time>2021-07-07T21:12:05Z</time>
      </trkpt>
      <trkpt lat="45.66162" lon="0.16252">
        <ele>22.73</ele>
        <time>2021-07-07T21:12:06Z</time>
      </trkpt>
      <trkpt lat="45.66173" lon="0.16256">
        <ele>23.21</ele>
        <time>2021-07-07T21:12:07Z</time>
      </trkpt>
      <trkpt lat="45.66184" lon="0.16259">
        <ele>25.13</ele>
        <time>2021-07-07T21:12:08Z</time>
      </trkpt>
      <trkpt lat="45.66192" lon="0.1626">
        <ele>24.65</ele>
        <time>2021-07-07T21:12:09Z</time>
      </trkpt>
      <trkpt lat="45.66202" lon="0.16257">
        <ele>23.69</ele>
        <time>2021-07-07T21:12:10Z</time>
      </trkpt>
      <trkpt lat="45.66211" lon="0.16254">
        <ele>22.73</ele>
        <time>2021-07-07T21:12:11Z</time>
      </trkpt>
      <trkpt lat="45.66288" lon="0.16234">
        <ele>25.13</ele>
        <time>2021-07-07T21:12:20Z</time>
      </trkpt>
      <trkpt lat="45.66425" lon="0.16228">
        <ele>21.77</ele>
        <time>2021-07-07T21:12:32Z</time>
      </trkpt>
      <trkpt lat="45.66487" lon="0.16222">
        <ele>21.77</ele>
        <time>2021-07-07T21:12:38Z</time>
      </trkpt>
      <trkpt lat="45.66513" lon="0.16212">
        <ele>23.21</ele>
        <time>2021-07-07T21:12:41Z</time>
      </trkpt>
      <trkpt lat="45.66622" lon="0.16135">
        <ele>20.81</ele>
        <time>2021-07-07T21:12:53Z</time>
      </trkpt>
      <trkpt lat="45.66713" lon="0.16063">
        <ele>17.92</ele>
        <time>2021-07-07T21:13:04Z</time>
      </trkpt>
      <trkpt lat="45.66721" lon="0.16059">
        <ele>17.44</ele>
        <time>2021-07-07T21:13:05Z</time>
      </trkpt>
      <trkpt lat="45.66729" lon="0.16055">
        <ele>17.44</ele>
        <time>2021-07-07T21:13:06Z</time>
      </trkpt>
      <trkpt lat="45.66741" lon="0.16051">
        <ele>16.96</ele>
        <time>2021-07-07T21:13:07Z</time>
      </trkpt>
      <trkpt lat="45.66741" lon="0.16051">
        <ele>16.96</ele>
        <time>2021-07-07T21:13:08Z</time>
      </trkpt>
      <trkpt lat="45.6676" lon="0.16047">
        <ele>17.44</ele>
        <time>2021-07-07T21:13:11Z</time>
      </trkpt>
      <trkpt lat="45.66768" lon="0.16047">
        <ele>17.92</ele>
        <time>2021-07-07T21:13:12Z</time>
      </trkpt>
      <trkpt lat="45.66782" lon="0.1605">
        <ele>18.4</ele>
        <time>2021-07-07T21:13:13Z</time>
      </trkpt>
      <trkpt lat="45.66831" lon="0.16069">
        <ele>21.77</ele>
        <time>2021-07-07T21:13:21Z</time>
      </trkpt>
      <trkpt lat="45.66839" lon="0.16072">
        <ele>22.25</ele>
        <time>2021-07-07T21:13:22Z</time>
      </trkpt>
      <trkpt lat="45.66846" lon="0.16072">
        <ele>21.77</ele>
        <time>2021-07-07T21:13:23Z</time>
      </trkpt>
      <trkpt lat="45.66964" lon="0.16048">
        <ele>21.77</ele>
        <time>2021-07-07T21:13:37Z</time>
      </trkpt>
      <trkpt lat="45.67018" lon="0.16018">
        <ele>18.88</ele>
        <time>2021-07-07T21:13:46Z</time>
      </trkpt>
      <trkpt lat="45.67067" lon="0.15985">
        <ele>19.36</ele>
        <time>2021-07-07T21:13:53Z</time>
      </trkpt>
      <trkpt lat="45.67143" lon="0.1595">
        <ele>19.84</ele>
        <time>2021-07-07T21:14:02Z</time>
      </trkpt>
      <trkpt lat="45.67155" lon="0.15946">
        <ele>19.36</ele>
        <time>2021-07-07T21:14:09Z</time>
      </trkpt>
      <trkpt lat="45.67177" lon="0.15938">
        <ele>19.84</ele>
        <time>2021-07-07T21:14:22Z</time>
      </trkpt>
      <trkpt lat="45.67267" lon="0.15907">
        <ele>20.32</ele>
        <time>2021-07-07T21:14:33Z</time>
      </trkpt>
      <trkpt lat="45.67404" lon="0.15863">
        <ele>22.25</ele>
        <time>2021-07-07T21:14:47Z</time>
      </trkpt>
    </trkseg>
  </trk>
</gpx>